<?xml version="1.0" encoding="UTF-8" standalone="no" ?>
<gpx xmlns="http://www.topografix.com/GPX/1/1" xmlns:xsi="http://www.w3.org/2001/XMLSchema-instance" xsi:schemaLocation="http://www.topografix.com/GPX/1/1 http://www.topografix.com/GPX/1/1/gpx.xsd" version="1.1" creator="VisuGPX - https://www.visugpx.com">
  <metadata>
    <name> Peyrillac /Cazoules 24</name>
    <desc><![CDATA[Aprés midi froide mais trés ensoleillée]]></desc>
  </metadata>
  <trk>
    <name><![CDATA[2017-01-17 17:14:45]]></name>
    <trkseg>
      <trkpt lat="44.88573" lon="1.40904">
        <ele>81.37</ele>
        <time>2017-01-17T12:51:22Z</time>
      </trkpt>
      <trkpt lat="44.88573" lon="1.40904">
        <ele>81.37</ele>
        <time>2017-01-17T12:51:24Z</time>
      </trkpt>
      <trkpt lat="44.88573" lon="1.40904">
        <ele>79.93</ele>
        <time>2017-01-17T12:52:08Z</time>
      </trkpt>
      <trkpt lat="44.88572" lon="1.40903">
        <ele>79.93</ele>
        <time>2017-01-17T12:52:27Z</time>
      </trkpt>
      <trkpt lat="44.88572" lon="1.40906">
        <ele>79.93</ele>
        <time>2017-01-17T12:52:50Z</time>
      </trkpt>
      <trkpt lat="44.88571" lon="1.4091">
        <ele>79.93</ele>
        <time>2017-01-17T12:53:12Z</time>
      </trkpt>
      <trkpt lat="44.88575" lon="1.40898">
        <ele>80.41</ele>
        <time>2017-01-17T12:53:30Z</time>
      </trkpt>
      <trkpt lat="44.8857" lon="1.40886">
        <ele>81.85</ele>
        <time>2017-01-17T12:53:39Z</time>
      </trkpt>
      <trkpt lat="44.88566" lon="1.40875">
        <ele>81.85</ele>
        <time>2017-01-17T12:53:54Z</time>
      </trkpt>
      <trkpt lat="44.88566" lon="1.40872">
        <ele>92.42</ele>
        <time>2017-01-17T12:53:56Z</time>
      </trkpt>
      <trkpt lat="44.88567" lon="1.40872">
        <ele>92.42</ele>
        <time>2017-01-17T12:53:57Z</time>
      </trkpt>
      <trkpt lat="44.88568" lon="1.40868">
        <ele>92.42</ele>
        <time>2017-01-17T12:54:00Z</time>
      </trkpt>
      <trkpt lat="44.88576" lon="1.40849">
        <ele>91.94</ele>
        <time>2017-01-17T12:54:12Z</time>
      </trkpt>
      <trkpt lat="44.88573" lon="1.40843">
        <ele>91.94</ele>
        <time>2017-01-17T12:54:16Z</time>
      </trkpt>
      <trkpt lat="44.88571" lon="1.40835">
        <ele>91.46</ele>
        <time>2017-01-17T12:54:25Z</time>
      </trkpt>
      <trkpt lat="44.88579" lon="1.40822">
        <ele>89.54</ele>
        <time>2017-01-17T12:54:42Z</time>
      </trkpt>
      <trkpt lat="44.88591" lon="1.40799">
        <ele>91.46</ele>
        <time>2017-01-17T12:54:56Z</time>
      </trkpt>
      <trkpt lat="44.88603" lon="1.40776">
        <ele>91.46</ele>
        <time>2017-01-17T12:55:12Z</time>
      </trkpt>
      <trkpt lat="44.886" lon="1.4075">
        <ele>91.94</ele>
        <time>2017-01-17T12:55:27Z</time>
      </trkpt>
      <trkpt lat="44.886" lon="1.40748">
        <ele>91.94</ele>
        <time>2017-01-17T12:55:28Z</time>
      </trkpt>
      <trkpt lat="44.88589" lon="1.40731">
        <ele>90.5</ele>
        <time>2017-01-17T12:55:40Z</time>
      </trkpt>
      <trkpt lat="44.88582" lon="1.40725">
        <ele>89.54</ele>
        <time>2017-01-17T12:55:49Z</time>
      </trkpt>
      <trkpt lat="44.88581" lon="1.40724">
        <ele>89.54</ele>
        <time>2017-01-17T12:55:50Z</time>
      </trkpt>
      <trkpt lat="44.8858" lon="1.40724">
        <ele>89.54</ele>
        <time>2017-01-17T12:55:51Z</time>
      </trkpt>
      <trkpt lat="44.88579" lon="1.40723">
        <ele>89.54</ele>
        <time>2017-01-17T12:55:52Z</time>
      </trkpt>
      <trkpt lat="44.88578" lon="1.40722">
        <ele>89.54</ele>
        <time>2017-01-17T12:55:53Z</time>
      </trkpt>
      <trkpt lat="44.88558" lon="1.40699">
        <ele>88.58</ele>
        <time>2017-01-17T12:56:14Z</time>
      </trkpt>
      <trkpt lat="44.88541" lon="1.40676">
        <ele>88.1</ele>
        <time>2017-01-17T12:56:32Z</time>
      </trkpt>
      <trkpt lat="44.88525" lon="1.40656">
        <ele>87.62</ele>
        <time>2017-01-17T12:56:48Z</time>
      </trkpt>
      <trkpt lat="44.88507" lon="1.40635">
        <ele>87.14</ele>
        <time>2017-01-17T12:57:07Z</time>
      </trkpt>
      <trkpt lat="44.88489" lon="1.40605">
        <ele>87.14</ele>
        <time>2017-01-17T12:57:28Z</time>
      </trkpt>
      <trkpt lat="44.88475" lon="1.40579">
        <ele>86.66</ele>
        <time>2017-01-17T12:57:45Z</time>
      </trkpt>
      <trkpt lat="44.88459" lon="1.4055">
        <ele>86.18</ele>
        <time>2017-01-17T12:58:05Z</time>
      </trkpt>
      <trkpt lat="44.88443" lon="1.40547">
        <ele>86.18</ele>
        <time>2017-01-17T12:58:19Z</time>
      </trkpt>
      <trkpt lat="44.88421" lon="1.40562">
        <ele>86.18</ele>
        <time>2017-01-17T12:58:37Z</time>
      </trkpt>
      <trkpt lat="44.88414" lon="1.40569">
        <ele>86.18</ele>
        <time>2017-01-17T12:58:50Z</time>
      </trkpt>
      <trkpt lat="44.88399" lon="1.40581">
        <ele>87.62</ele>
        <time>2017-01-17T12:59:07Z</time>
      </trkpt>
      <trkpt lat="44.88383" lon="1.40594">
        <ele>87.62</ele>
        <time>2017-01-17T12:59:21Z</time>
      </trkpt>
      <trkpt lat="44.88362" lon="1.40612">
        <ele>87.14</ele>
        <time>2017-01-17T12:59:39Z</time>
      </trkpt>
      <trkpt lat="44.88343" lon="1.40629">
        <ele>87.14</ele>
        <time>2017-01-17T12:59:56Z</time>
      </trkpt>
      <trkpt lat="44.88342" lon="1.40632">
        <ele>87.14</ele>
        <time>2017-01-17T13:00:04Z</time>
      </trkpt>
      <trkpt lat="44.88341" lon="1.40633">
        <ele>87.14</ele>
        <time>2017-01-17T13:00:05Z</time>
      </trkpt>
      <trkpt lat="44.88329" lon="1.40641">
        <ele>86.18</ele>
        <time>2017-01-17T13:00:14Z</time>
      </trkpt>
      <trkpt lat="44.883" lon="1.40656">
        <ele>86.18</ele>
        <time>2017-01-17T13:00:35Z</time>
      </trkpt>
      <trkpt lat="44.88278" lon="1.40674">
        <ele>86.18</ele>
        <time>2017-01-17T13:00:52Z</time>
      </trkpt>
      <trkpt lat="44.88266" lon="1.40707">
        <ele>85.69</ele>
        <time>2017-01-17T13:01:10Z</time>
      </trkpt>
      <trkpt lat="44.88255" lon="1.40742">
        <ele>85.69</ele>
        <time>2017-01-17T13:01:30Z</time>
      </trkpt>
      <trkpt lat="44.88234" lon="1.40779">
        <ele>86.66</ele>
        <time>2017-01-17T13:01:55Z</time>
      </trkpt>
      <trkpt lat="44.88207" lon="1.4081">
        <ele>85.21</ele>
        <time>2017-01-17T13:02:18Z</time>
      </trkpt>
      <trkpt lat="44.88198" lon="1.40818">
        <ele>86.18</ele>
        <time>2017-01-17T13:02:25Z</time>
      </trkpt>
      <trkpt lat="44.88172" lon="1.40838">
        <ele>86.18</ele>
        <time>2017-01-17T13:02:48Z</time>
      </trkpt>
      <trkpt lat="44.88153" lon="1.40847">
        <ele>86.18</ele>
        <time>2017-01-17T13:03:05Z</time>
      </trkpt>
      <trkpt lat="44.88122" lon="1.40858">
        <ele>86.18</ele>
        <time>2017-01-17T13:03:28Z</time>
      </trkpt>
      <trkpt lat="44.88091" lon="1.40871">
        <ele>84.73</ele>
        <time>2017-01-17T13:03:51Z</time>
      </trkpt>
      <trkpt lat="44.88061" lon="1.40879">
        <ele>86.18</ele>
        <time>2017-01-17T13:04:13Z</time>
      </trkpt>
      <trkpt lat="44.88031" lon="1.40884">
        <ele>87.14</ele>
        <time>2017-01-17T13:04:36Z</time>
      </trkpt>
      <trkpt lat="44.87998" lon="1.40879">
        <ele>87.14</ele>
        <time>2017-01-17T13:05:02Z</time>
      </trkpt>
      <trkpt lat="44.87971" lon="1.40873">
        <ele>85.69</ele>
        <time>2017-01-17T13:05:22Z</time>
      </trkpt>
      <trkpt lat="44.87944" lon="1.40871">
        <ele>85.69</ele>
        <time>2017-01-17T13:05:44Z</time>
      </trkpt>
      <trkpt lat="44.8792" lon="1.40869">
        <ele>85.69</ele>
        <time>2017-01-17T13:06:03Z</time>
      </trkpt>
      <trkpt lat="44.87896" lon="1.40866">
        <ele>86.66</ele>
        <time>2017-01-17T13:06:22Z</time>
      </trkpt>
      <trkpt lat="44.87866" lon="1.40863">
        <ele>86.66</ele>
        <time>2017-01-17T13:06:43Z</time>
      </trkpt>
      <trkpt lat="44.87838" lon="1.40854">
        <ele>86.66</ele>
        <time>2017-01-17T13:07:05Z</time>
      </trkpt>
      <trkpt lat="44.87814" lon="1.40829">
        <ele>86.66</ele>
        <time>2017-01-17T13:07:26Z</time>
      </trkpt>
      <trkpt lat="44.87797" lon="1.40804">
        <ele>87.62</ele>
        <time>2017-01-17T13:07:44Z</time>
      </trkpt>
      <trkpt lat="44.87778" lon="1.40774">
        <ele>87.62</ele>
        <time>2017-01-17T13:08:05Z</time>
      </trkpt>
      <trkpt lat="44.87761" lon="1.40763">
        <ele>87.62</ele>
        <time>2017-01-17T13:08:21Z</time>
      </trkpt>
      <trkpt lat="44.87741" lon="1.40781">
        <ele>87.62</ele>
        <time>2017-01-17T13:08:39Z</time>
      </trkpt>
      <trkpt lat="44.8772" lon="1.40799">
        <ele>87.62</ele>
        <time>2017-01-17T13:08:57Z</time>
      </trkpt>
      <trkpt lat="44.87715" lon="1.40803">
        <ele>86.18</ele>
        <time>2017-01-17T13:09:01Z</time>
      </trkpt>
      <trkpt lat="44.87695" lon="1.40821">
        <ele>88.1</ele>
        <time>2017-01-17T13:09:20Z</time>
      </trkpt>
      <trkpt lat="44.87691" lon="1.40825">
        <ele>89.54</ele>
        <time>2017-01-17T13:09:24Z</time>
      </trkpt>
      <trkpt lat="44.87682" lon="1.40836">
        <ele>86.18</ele>
        <time>2017-01-17T13:09:34Z</time>
      </trkpt>
      <trkpt lat="44.87668" lon="1.40851">
        <ele>87.62</ele>
        <time>2017-01-17T13:09:47Z</time>
      </trkpt>
      <trkpt lat="44.87647" lon="1.40877">
        <ele>87.62</ele>
        <time>2017-01-17T13:10:08Z</time>
      </trkpt>
      <trkpt lat="44.87632" lon="1.4089">
        <ele>86.18</ele>
        <time>2017-01-17T13:10:23Z</time>
      </trkpt>
      <trkpt lat="44.87615" lon="1.40907">
        <ele>85.69</ele>
        <time>2017-01-17T13:10:40Z</time>
      </trkpt>
      <trkpt lat="44.87598" lon="1.40927">
        <ele>85.21</ele>
        <time>2017-01-17T13:10:56Z</time>
      </trkpt>
      <trkpt lat="44.87582" lon="1.40947">
        <ele>86.66</ele>
        <time>2017-01-17T13:11:12Z</time>
      </trkpt>
      <trkpt lat="44.87567" lon="1.4097">
        <ele>86.66</ele>
        <time>2017-01-17T13:11:29Z</time>
      </trkpt>
      <trkpt lat="44.87551" lon="1.40997">
        <ele>86.66</ele>
        <time>2017-01-17T13:11:49Z</time>
      </trkpt>
      <trkpt lat="44.87551" lon="1.40998">
        <ele>86.66</ele>
        <time>2017-01-17T13:11:50Z</time>
      </trkpt>
      <trkpt lat="44.87551" lon="1.41001">
        <ele>86.66</ele>
        <time>2017-01-17T13:11:51Z</time>
      </trkpt>
      <trkpt lat="44.87565" lon="1.41025">
        <ele>86.18</ele>
        <time>2017-01-17T13:12:09Z</time>
      </trkpt>
      <trkpt lat="44.87561" lon="1.41058">
        <ele>87.14</ele>
        <time>2017-01-17T13:12:28Z</time>
      </trkpt>
      <trkpt lat="44.87545" lon="1.41089">
        <ele>87.14</ele>
        <time>2017-01-17T13:12:50Z</time>
      </trkpt>
      <trkpt lat="44.87525" lon="1.41121">
        <ele>87.14</ele>
        <time>2017-01-17T13:13:14Z</time>
      </trkpt>
      <trkpt lat="44.87507" lon="1.41154">
        <ele>87.14</ele>
        <time>2017-01-17T13:13:36Z</time>
      </trkpt>
      <trkpt lat="44.87488" lon="1.41186">
        <ele>87.14</ele>
        <time>2017-01-17T13:13:59Z</time>
      </trkpt>
      <trkpt lat="44.87469" lon="1.41216">
        <ele>87.14</ele>
        <time>2017-01-17T13:14:20Z</time>
      </trkpt>
      <trkpt lat="44.87449" lon="1.41247">
        <ele>87.62</ele>
        <time>2017-01-17T13:14:44Z</time>
      </trkpt>
      <trkpt lat="44.87433" lon="1.41276">
        <ele>87.62</ele>
        <time>2017-01-17T13:15:04Z</time>
      </trkpt>
      <trkpt lat="44.87418" lon="1.41306">
        <ele>87.62</ele>
        <time>2017-01-17T13:15:24Z</time>
      </trkpt>
      <trkpt lat="44.87403" lon="1.41332">
        <ele>87.62</ele>
        <time>2017-01-17T13:15:44Z</time>
      </trkpt>
      <trkpt lat="44.87401" lon="1.41332">
        <ele>87.62</ele>
        <time>2017-01-17T13:15:45Z</time>
      </trkpt>
      <trkpt lat="44.874" lon="1.41331">
        <ele>87.62</ele>
        <time>2017-01-17T13:15:46Z</time>
      </trkpt>
      <trkpt lat="44.87399" lon="1.41331">
        <ele>87.62</ele>
        <time>2017-01-17T13:15:47Z</time>
      </trkpt>
      <trkpt lat="44.87398" lon="1.4133">
        <ele>87.62</ele>
        <time>2017-01-17T13:15:48Z</time>
      </trkpt>
      <trkpt lat="44.87385" lon="1.41322">
        <ele>87.62</ele>
        <time>2017-01-17T13:16:02Z</time>
      </trkpt>
      <trkpt lat="44.87363" lon="1.41305">
        <ele>87.14</ele>
        <time>2017-01-17T13:16:22Z</time>
      </trkpt>
      <trkpt lat="44.87341" lon="1.4129">
        <ele>86.18</ele>
        <time>2017-01-17T13:16:44Z</time>
      </trkpt>
      <trkpt lat="44.87327" lon="1.41287">
        <ele>85.69</ele>
        <time>2017-01-17T13:17:02Z</time>
      </trkpt>
      <trkpt lat="44.87321" lon="1.41293">
        <ele>85.69</ele>
        <time>2017-01-17T13:17:27Z</time>
      </trkpt>
      <trkpt lat="44.8732" lon="1.41296">
        <ele>85.69</ele>
        <time>2017-01-17T13:17:41Z</time>
      </trkpt>
      <trkpt lat="44.87312" lon="1.41314">
        <ele>85.21</ele>
        <time>2017-01-17T13:18:00Z</time>
      </trkpt>
      <trkpt lat="44.87311" lon="1.41334">
        <ele>85.21</ele>
        <time>2017-01-17T13:18:11Z</time>
      </trkpt>
      <trkpt lat="44.87314" lon="1.41357">
        <ele>85.21</ele>
        <time>2017-01-17T13:18:26Z</time>
      </trkpt>
      <trkpt lat="44.87308" lon="1.41382">
        <ele>84.73</ele>
        <time>2017-01-17T13:18:42Z</time>
      </trkpt>
      <trkpt lat="44.87302" lon="1.41409">
        <ele>84.25</ele>
        <time>2017-01-17T13:19:01Z</time>
      </trkpt>
      <trkpt lat="44.87293" lon="1.41438">
        <ele>84.25</ele>
        <time>2017-01-17T13:19:21Z</time>
      </trkpt>
      <trkpt lat="44.87284" lon="1.41466">
        <ele>85.21</ele>
        <time>2017-01-17T13:19:34Z</time>
      </trkpt>
      <trkpt lat="44.87275" lon="1.41487">
        <ele>85.21</ele>
        <time>2017-01-17T13:19:50Z</time>
      </trkpt>
      <trkpt lat="44.87261" lon="1.41513">
        <ele>85.69</ele>
        <time>2017-01-17T13:20:09Z</time>
      </trkpt>
      <trkpt lat="44.87246" lon="1.41543">
        <ele>85.69</ele>
        <time>2017-01-17T13:20:29Z</time>
      </trkpt>
      <trkpt lat="44.87237" lon="1.41571">
        <ele>85.21</ele>
        <time>2017-01-17T13:20:46Z</time>
      </trkpt>
      <trkpt lat="44.87229" lon="1.41596">
        <ele>85.69</ele>
        <time>2017-01-17T13:21:02Z</time>
      </trkpt>
      <trkpt lat="44.87226" lon="1.41626">
        <ele>86.18</ele>
        <time>2017-01-17T13:21:16Z</time>
      </trkpt>
      <trkpt lat="44.87221" lon="1.41662">
        <ele>86.18</ele>
        <time>2017-01-17T13:21:34Z</time>
      </trkpt>
      <trkpt lat="44.87216" lon="1.41693">
        <ele>86.18</ele>
        <time>2017-01-17T13:21:53Z</time>
      </trkpt>
      <trkpt lat="44.87213" lon="1.41712">
        <ele>86.66</ele>
        <time>2017-01-17T13:22:09Z</time>
      </trkpt>
      <trkpt lat="44.87209" lon="1.41723">
        <ele>86.66</ele>
        <time>2017-01-17T13:22:30Z</time>
      </trkpt>
      <trkpt lat="44.872" lon="1.41741">
        <ele>87.62</ele>
        <time>2017-01-17T13:22:48Z</time>
      </trkpt>
      <trkpt lat="44.87191" lon="1.41763">
        <ele>85.69</ele>
        <time>2017-01-17T13:23:05Z</time>
      </trkpt>
      <trkpt lat="44.8719" lon="1.41785">
        <ele>85.69</ele>
        <time>2017-01-17T13:23:20Z</time>
      </trkpt>
      <trkpt lat="44.87192" lon="1.41811">
        <ele>85.69</ele>
        <time>2017-01-17T13:23:38Z</time>
      </trkpt>
      <trkpt lat="44.87192" lon="1.41812">
        <ele>85.69</ele>
        <time>2017-01-17T13:23:39Z</time>
      </trkpt>
      <trkpt lat="44.87192" lon="1.41816">
        <ele>85.21</ele>
        <time>2017-01-17T13:23:41Z</time>
      </trkpt>
      <trkpt lat="44.87187" lon="1.41847">
        <ele>84.73</ele>
        <time>2017-01-17T13:23:59Z</time>
      </trkpt>
      <trkpt lat="44.87184" lon="1.41872">
        <ele>84.25</ele>
        <time>2017-01-17T13:24:14Z</time>
      </trkpt>
      <trkpt lat="44.87183" lon="1.41902">
        <ele>84.25</ele>
        <time>2017-01-17T13:24:32Z</time>
      </trkpt>
      <trkpt lat="44.87184" lon="1.41929">
        <ele>83.29</ele>
        <time>2017-01-17T13:24:49Z</time>
      </trkpt>
      <trkpt lat="44.87195" lon="1.41964">
        <ele>84.73</ele>
        <time>2017-01-17T13:25:08Z</time>
      </trkpt>
      <trkpt lat="44.87207" lon="1.41988">
        <ele>84.73</ele>
        <time>2017-01-17T13:25:23Z</time>
      </trkpt>
      <trkpt lat="44.87217" lon="1.42014">
        <ele>84.73</ele>
        <time>2017-01-17T13:25:40Z</time>
      </trkpt>
      <trkpt lat="44.87227" lon="1.42042">
        <ele>84.73</ele>
        <time>2017-01-17T13:25:59Z</time>
      </trkpt>
      <trkpt lat="44.87237" lon="1.42071">
        <ele>84.73</ele>
        <time>2017-01-17T13:26:17Z</time>
      </trkpt>
      <trkpt lat="44.87246" lon="1.42099">
        <ele>84.73</ele>
        <time>2017-01-17T13:26:34Z</time>
      </trkpt>
      <trkpt lat="44.87255" lon="1.42128">
        <ele>84.25</ele>
        <time>2017-01-17T13:26:52Z</time>
      </trkpt>
      <trkpt lat="44.87255" lon="1.42131">
        <ele>83.29</ele>
        <time>2017-01-17T13:26:54Z</time>
      </trkpt>
      <trkpt lat="44.87257" lon="1.42153">
        <ele>83.29</ele>
        <time>2017-01-17T13:27:10Z</time>
      </trkpt>
      <trkpt lat="44.87257" lon="1.42169">
        <ele>83.29</ele>
        <time>2017-01-17T13:27:28Z</time>
      </trkpt>
      <trkpt lat="44.8726" lon="1.42185">
        <ele>82.81</ele>
        <time>2017-01-17T13:27:46Z</time>
      </trkpt>
      <trkpt lat="44.87267" lon="1.42198">
        <ele>82.81</ele>
        <time>2017-01-17T13:28:03Z</time>
      </trkpt>
      <trkpt lat="44.87271" lon="1.42214">
        <ele>82.33</ele>
        <time>2017-01-17T13:28:20Z</time>
      </trkpt>
      <trkpt lat="44.87282" lon="1.42235">
        <ele>82.33</ele>
        <time>2017-01-17T13:28:37Z</time>
      </trkpt>
      <trkpt lat="44.8728" lon="1.4226">
        <ele>83.29</ele>
        <time>2017-01-17T13:28:53Z</time>
      </trkpt>
      <trkpt lat="44.87281" lon="1.42286">
        <ele>83.29</ele>
        <time>2017-01-17T13:29:10Z</time>
      </trkpt>
      <trkpt lat="44.87283" lon="1.42313">
        <ele>83.77</ele>
        <time>2017-01-17T13:29:28Z</time>
      </trkpt>
      <trkpt lat="44.87286" lon="1.42335">
        <ele>83.77</ele>
        <time>2017-01-17T13:29:43Z</time>
      </trkpt>
      <trkpt lat="44.87284" lon="1.42359">
        <ele>83.77</ele>
        <time>2017-01-17T13:30:00Z</time>
      </trkpt>
      <trkpt lat="44.87282" lon="1.42386">
        <ele>82.33</ele>
        <time>2017-01-17T13:30:17Z</time>
      </trkpt>
      <trkpt lat="44.87281" lon="1.42414">
        <ele>82.33</ele>
        <time>2017-01-17T13:30:33Z</time>
      </trkpt>
      <trkpt lat="44.87279" lon="1.42453">
        <ele>83.77</ele>
        <time>2017-01-17T13:30:54Z</time>
      </trkpt>
      <trkpt lat="44.87279" lon="1.42455">
        <ele>83.77</ele>
        <time>2017-01-17T13:30:55Z</time>
      </trkpt>
      <trkpt lat="44.87275" lon="1.4249">
        <ele>81.37</ele>
        <time>2017-01-17T13:31:15Z</time>
      </trkpt>
      <trkpt lat="44.87273" lon="1.42515">
        <ele>81.37</ele>
        <time>2017-01-17T13:31:32Z</time>
      </trkpt>
      <trkpt lat="44.87268" lon="1.42539">
        <ele>81.37</ele>
        <time>2017-01-17T13:31:48Z</time>
      </trkpt>
      <trkpt lat="44.87265" lon="1.42575">
        <ele>81.37</ele>
        <time>2017-01-17T13:32:06Z</time>
      </trkpt>
      <trkpt lat="44.87262" lon="1.42609">
        <ele>81.37</ele>
        <time>2017-01-17T13:32:25Z</time>
      </trkpt>
      <trkpt lat="44.87261" lon="1.42641">
        <ele>79.93</ele>
        <time>2017-01-17T13:32:42Z</time>
      </trkpt>
      <trkpt lat="44.87269" lon="1.42672">
        <ele>79.93</ele>
        <time>2017-01-17T13:33:00Z</time>
      </trkpt>
      <trkpt lat="44.87276" lon="1.42695">
        <ele>79.93</ele>
        <time>2017-01-17T13:33:17Z</time>
      </trkpt>
      <trkpt lat="44.8728" lon="1.42704">
        <ele>80.89</ele>
        <time>2017-01-17T13:33:34Z</time>
      </trkpt>
      <trkpt lat="44.87268" lon="1.42711">
        <ele>80.89</ele>
        <time>2017-01-17T13:33:51Z</time>
      </trkpt>
      <trkpt lat="44.87258" lon="1.42729">
        <ele>80.89</ele>
        <time>2017-01-17T13:34:05Z</time>
      </trkpt>
      <trkpt lat="44.87246" lon="1.42766">
        <ele>80.89</ele>
        <time>2017-01-17T13:34:26Z</time>
      </trkpt>
      <trkpt lat="44.8724" lon="1.42801">
        <ele>80.89</ele>
        <time>2017-01-17T13:34:45Z</time>
      </trkpt>
      <trkpt lat="44.87239" lon="1.42834">
        <ele>80.89</ele>
        <time>2017-01-17T13:35:04Z</time>
      </trkpt>
      <trkpt lat="44.87242" lon="1.42861">
        <ele>80.89</ele>
        <time>2017-01-17T13:35:20Z</time>
      </trkpt>
      <trkpt lat="44.87244" lon="1.42888">
        <ele>80.89</ele>
        <time>2017-01-17T13:35:39Z</time>
      </trkpt>
      <trkpt lat="44.87249" lon="1.42903">
        <ele>80.89</ele>
        <time>2017-01-17T13:35:54Z</time>
      </trkpt>
      <trkpt lat="44.8726" lon="1.42937">
        <ele>80.89</ele>
        <time>2017-01-17T13:36:11Z</time>
      </trkpt>
      <trkpt lat="44.87269" lon="1.42965">
        <ele>80.89</ele>
        <time>2017-01-17T13:36:28Z</time>
      </trkpt>
      <trkpt lat="44.87273" lon="1.42982">
        <ele>80.89</ele>
        <time>2017-01-17T13:36:39Z</time>
      </trkpt>
      <trkpt lat="44.8728" lon="1.43016">
        <ele>80.89</ele>
        <time>2017-01-17T13:36:57Z</time>
      </trkpt>
      <trkpt lat="44.87283" lon="1.43049">
        <ele>80.41</ele>
        <time>2017-01-17T13:37:14Z</time>
      </trkpt>
      <trkpt lat="44.87285" lon="1.43061">
        <ele>80.41</ele>
        <time>2017-01-17T13:37:21Z</time>
      </trkpt>
      <trkpt lat="44.87288" lon="1.43107">
        <ele>80.89</ele>
        <time>2017-01-17T13:37:44Z</time>
      </trkpt>
      <trkpt lat="44.87287" lon="1.43142">
        <ele>79.93</ele>
        <time>2017-01-17T13:38:03Z</time>
      </trkpt>
      <trkpt lat="44.87287" lon="1.43172">
        <ele>80.89</ele>
        <time>2017-01-17T13:38:19Z</time>
      </trkpt>
      <trkpt lat="44.8729" lon="1.43205">
        <ele>80.89</ele>
        <time>2017-01-17T13:38:37Z</time>
      </trkpt>
      <trkpt lat="44.87293" lon="1.43239">
        <ele>81.37</ele>
        <time>2017-01-17T13:38:56Z</time>
      </trkpt>
      <trkpt lat="44.87301" lon="1.43276">
        <ele>80.89</ele>
        <time>2017-01-17T13:39:17Z</time>
      </trkpt>
      <trkpt lat="44.87312" lon="1.43313">
        <ele>81.37</ele>
        <time>2017-01-17T13:39:36Z</time>
      </trkpt>
      <trkpt lat="44.87319" lon="1.4333">
        <ele>81.85</ele>
        <time>2017-01-17T13:39:53Z</time>
      </trkpt>
      <trkpt lat="44.87323" lon="1.43352">
        <ele>81.85</ele>
        <time>2017-01-17T13:40:08Z</time>
      </trkpt>
      <trkpt lat="44.87333" lon="1.43393">
        <ele>81.85</ele>
        <time>2017-01-17T13:40:30Z</time>
      </trkpt>
      <trkpt lat="44.8734" lon="1.43424">
        <ele>81.37</ele>
        <time>2017-01-17T13:40:48Z</time>
      </trkpt>
      <trkpt lat="44.87346" lon="1.43471">
        <ele>81.37</ele>
        <time>2017-01-17T13:41:11Z</time>
      </trkpt>
      <trkpt lat="44.87346" lon="1.43507">
        <ele>81.37</ele>
        <time>2017-01-17T13:41:30Z</time>
      </trkpt>
      <trkpt lat="44.87351" lon="1.43542">
        <ele>81.37</ele>
        <time>2017-01-17T13:41:50Z</time>
      </trkpt>
      <trkpt lat="44.87364" lon="1.43575">
        <ele>81.37</ele>
        <time>2017-01-17T13:42:11Z</time>
      </trkpt>
      <trkpt lat="44.87376" lon="1.43608">
        <ele>81.85</ele>
        <time>2017-01-17T13:42:32Z</time>
      </trkpt>
      <trkpt lat="44.87382" lon="1.43638">
        <ele>82.33</ele>
        <time>2017-01-17T13:42:49Z</time>
      </trkpt>
      <trkpt lat="44.87387" lon="1.43667">
        <ele>80.89</ele>
        <time>2017-01-17T13:43:07Z</time>
      </trkpt>
      <trkpt lat="44.87392" lon="1.43682">
        <ele>80.89</ele>
        <time>2017-01-17T13:43:21Z</time>
      </trkpt>
      <trkpt lat="44.87402" lon="1.43695">
        <ele>80.89</ele>
        <time>2017-01-17T13:43:37Z</time>
      </trkpt>
      <trkpt lat="44.87414" lon="1.43719">
        <ele>80.41</ele>
        <time>2017-01-17T13:43:57Z</time>
      </trkpt>
      <trkpt lat="44.87415" lon="1.4372">
        <ele>80.41</ele>
        <time>2017-01-17T13:43:58Z</time>
      </trkpt>
      <trkpt lat="44.87422" lon="1.43734">
        <ele>80.41</ele>
        <time>2017-01-17T13:44:09Z</time>
      </trkpt>
      <trkpt lat="44.87433" lon="1.43762">
        <ele>80.41</ele>
        <time>2017-01-17T13:44:28Z</time>
      </trkpt>
      <trkpt lat="44.87445" lon="1.43781">
        <ele>79.93</ele>
        <time>2017-01-17T13:44:45Z</time>
      </trkpt>
      <trkpt lat="44.87457" lon="1.438">
        <ele>79.93</ele>
        <time>2017-01-17T13:45:02Z</time>
      </trkpt>
      <trkpt lat="44.87467" lon="1.43818">
        <ele>79.45</ele>
        <time>2017-01-17T13:45:17Z</time>
      </trkpt>
      <trkpt lat="44.87481" lon="1.43841">
        <ele>79.45</ele>
        <time>2017-01-17T13:45:34Z</time>
      </trkpt>
      <trkpt lat="44.87495" lon="1.43859">
        <ele>79.45</ele>
        <time>2017-01-17T13:45:50Z</time>
      </trkpt>
      <trkpt lat="44.87508" lon="1.43877">
        <ele>78.97</ele>
        <time>2017-01-17T13:46:03Z</time>
      </trkpt>
      <trkpt lat="44.87519" lon="1.43892">
        <ele>78.97</ele>
        <time>2017-01-17T13:46:15Z</time>
      </trkpt>
      <trkpt lat="44.87534" lon="1.4391">
        <ele>78.97</ele>
        <time>2017-01-17T13:46:32Z</time>
      </trkpt>
      <trkpt lat="44.87548" lon="1.43926">
        <ele>78.48</ele>
        <time>2017-01-17T13:46:47Z</time>
      </trkpt>
      <trkpt lat="44.87574" lon="1.43953">
        <ele>78.48</ele>
        <time>2017-01-17T13:47:05Z</time>
      </trkpt>
      <trkpt lat="44.8759" lon="1.4397">
        <ele>78.48</ele>
        <time>2017-01-17T13:47:23Z</time>
      </trkpt>
      <trkpt lat="44.87607" lon="1.43987">
        <ele>78.48</ele>
        <time>2017-01-17T13:47:40Z</time>
      </trkpt>
      <trkpt lat="44.87626" lon="1.44002">
        <ele>78.48</ele>
        <time>2017-01-17T13:47:57Z</time>
      </trkpt>
      <trkpt lat="44.87644" lon="1.44016">
        <ele>78</ele>
        <time>2017-01-17T13:48:14Z</time>
      </trkpt>
      <trkpt lat="44.87664" lon="1.4403">
        <ele>78</ele>
        <time>2017-01-17T13:48:32Z</time>
      </trkpt>
      <trkpt lat="44.87688" lon="1.44044">
        <ele>78</ele>
        <time>2017-01-17T13:48:49Z</time>
      </trkpt>
      <trkpt lat="44.87708" lon="1.44054">
        <ele>78</ele>
        <time>2017-01-17T13:49:06Z</time>
      </trkpt>
      <trkpt lat="44.87717" lon="1.44061">
        <ele>78.97</ele>
        <time>2017-01-17T13:49:19Z</time>
      </trkpt>
      <trkpt lat="44.87739" lon="1.44076">
        <ele>79.45</ele>
        <time>2017-01-17T13:49:37Z</time>
      </trkpt>
      <trkpt lat="44.87759" lon="1.44091">
        <ele>79.45</ele>
        <time>2017-01-17T13:49:54Z</time>
      </trkpt>
      <trkpt lat="44.8778" lon="1.44101">
        <ele>78.97</ele>
        <time>2017-01-17T13:50:09Z</time>
      </trkpt>
      <trkpt lat="44.87781" lon="1.441">
        <ele>78.97</ele>
        <time>2017-01-17T13:50:10Z</time>
      </trkpt>
      <trkpt lat="44.87789" lon="1.4411">
        <ele>78.97</ele>
        <time>2017-01-17T13:50:21Z</time>
      </trkpt>
      <trkpt lat="44.87793" lon="1.44116">
        <ele>78.97</ele>
        <time>2017-01-17T13:50:25Z</time>
      </trkpt>
      <trkpt lat="44.87813" lon="1.44133">
        <ele>78.97</ele>
        <time>2017-01-17T13:50:42Z</time>
      </trkpt>
      <trkpt lat="44.87834" lon="1.44146">
        <ele>79.45</ele>
        <time>2017-01-17T13:50:59Z</time>
      </trkpt>
      <trkpt lat="44.87859" lon="1.44155">
        <ele>79.45</ele>
        <time>2017-01-17T13:51:18Z</time>
      </trkpt>
      <trkpt lat="44.87887" lon="1.44167">
        <ele>79.45</ele>
        <time>2017-01-17T13:51:38Z</time>
      </trkpt>
      <trkpt lat="44.87905" lon="1.44175">
        <ele>78.48</ele>
        <time>2017-01-17T13:51:55Z</time>
      </trkpt>
      <trkpt lat="44.87927" lon="1.4418">
        <ele>78.48</ele>
        <time>2017-01-17T13:52:12Z</time>
      </trkpt>
      <trkpt lat="44.8794" lon="1.44184">
        <ele>77.52</ele>
        <time>2017-01-17T13:52:27Z</time>
      </trkpt>
      <trkpt lat="44.87959" lon="1.44186">
        <ele>77.52</ele>
        <time>2017-01-17T13:52:41Z</time>
      </trkpt>
      <trkpt lat="44.87976" lon="1.4419">
        <ele>77.52</ele>
        <time>2017-01-17T13:52:56Z</time>
      </trkpt>
      <trkpt lat="44.88" lon="1.44192">
        <ele>77.52</ele>
        <time>2017-01-17T13:53:11Z</time>
      </trkpt>
      <trkpt lat="44.88023" lon="1.4419">
        <ele>78.48</ele>
        <time>2017-01-17T13:53:31Z</time>
      </trkpt>
      <trkpt lat="44.88045" lon="1.44189">
        <ele>78</ele>
        <time>2017-01-17T13:53:50Z</time>
      </trkpt>
      <trkpt lat="44.88074" lon="1.4419">
        <ele>78</ele>
        <time>2017-01-17T13:54:05Z</time>
      </trkpt>
      <trkpt lat="44.88093" lon="1.44192">
        <ele>77.52</ele>
        <time>2017-01-17T13:54:23Z</time>
      </trkpt>
      <trkpt lat="44.881" lon="1.44191">
        <ele>77.52</ele>
        <time>2017-01-17T13:54:30Z</time>
      </trkpt>
      <trkpt lat="44.88119" lon="1.44183">
        <ele>77.52</ele>
        <time>2017-01-17T13:54:46Z</time>
      </trkpt>
      <trkpt lat="44.88138" lon="1.44181">
        <ele>77.52</ele>
        <time>2017-01-17T13:55:03Z</time>
      </trkpt>
      <trkpt lat="44.88139" lon="1.44177">
        <ele>78.97</ele>
        <time>2017-01-17T13:55:20Z</time>
      </trkpt>
      <trkpt lat="44.88139" lon="1.4418">
        <ele>77.52</ele>
        <time>2017-01-17T13:55:48Z</time>
      </trkpt>
      <trkpt lat="44.88138" lon="1.4418">
        <ele>78.97</ele>
        <time>2017-01-17T13:55:56Z</time>
      </trkpt>
      <trkpt lat="44.88137" lon="1.44187">
        <ele>78.97</ele>
        <time>2017-01-17T13:56:19Z</time>
      </trkpt>
      <trkpt lat="44.88133" lon="1.4418">
        <ele>79.45</ele>
        <time>2017-01-17T13:56:43Z</time>
      </trkpt>
      <trkpt lat="44.88132" lon="1.44179">
        <ele>78</ele>
        <time>2017-01-17T13:56:45Z</time>
      </trkpt>
      <trkpt lat="44.88129" lon="1.44181">
        <ele>78</ele>
        <time>2017-01-17T13:57:08Z</time>
      </trkpt>
      <trkpt lat="44.8813" lon="1.44182">
        <ele>78</ele>
        <time>2017-01-17T13:57:25Z</time>
      </trkpt>
      <trkpt lat="44.88138" lon="1.44187">
        <ele>78</ele>
        <time>2017-01-17T13:57:44Z</time>
      </trkpt>
      <trkpt lat="44.88138" lon="1.44184">
        <ele>77.52</ele>
        <time>2017-01-17T13:58:09Z</time>
      </trkpt>
      <trkpt lat="44.88143" lon="1.4418">
        <ele>78.48</ele>
        <time>2017-01-17T13:58:31Z</time>
      </trkpt>
      <trkpt lat="44.88141" lon="1.44184">
        <ele>79.45</ele>
        <time>2017-01-17T13:58:49Z</time>
      </trkpt>
      <trkpt lat="44.88141" lon="1.44184">
        <ele>78.48</ele>
        <time>2017-01-17T13:58:59Z</time>
      </trkpt>
      <trkpt lat="44.88142" lon="1.44181">
        <ele>79.93</ele>
        <time>2017-01-17T13:59:08Z</time>
      </trkpt>
      <trkpt lat="44.88143" lon="1.4418">
        <ele>78.48</ele>
        <time>2017-01-17T13:59:16Z</time>
      </trkpt>
      <trkpt lat="44.88144" lon="1.44178">
        <ele>78.97</ele>
        <time>2017-01-17T13:59:47Z</time>
      </trkpt>
      <trkpt lat="44.88141" lon="1.44187">
        <ele>79.93</ele>
        <time>2017-01-17T14:00:09Z</time>
      </trkpt>
      <trkpt lat="44.88139" lon="1.44185">
        <ele>79.93</ele>
        <time>2017-01-17T14:00:39Z</time>
      </trkpt>
      <trkpt lat="44.88142" lon="1.44189">
        <ele>79.93</ele>
        <time>2017-01-17T14:01:09Z</time>
      </trkpt>
      <trkpt lat="44.88149" lon="1.44182">
        <ele>80.41</ele>
        <time>2017-01-17T14:01:37Z</time>
      </trkpt>
      <trkpt lat="44.88166" lon="1.44178">
        <ele>80.41</ele>
        <time>2017-01-17T14:01:53Z</time>
      </trkpt>
      <trkpt lat="44.88181" lon="1.44171">
        <ele>80.41</ele>
        <time>2017-01-17T14:02:09Z</time>
      </trkpt>
      <trkpt lat="44.882" lon="1.44168">
        <ele>80.41</ele>
        <time>2017-01-17T14:02:28Z</time>
      </trkpt>
      <trkpt lat="44.88219" lon="1.44164">
        <ele>80.41</ele>
        <time>2017-01-17T14:02:46Z</time>
      </trkpt>
      <trkpt lat="44.88237" lon="1.4416">
        <ele>80.41</ele>
        <time>2017-01-17T14:03:04Z</time>
      </trkpt>
      <trkpt lat="44.88258" lon="1.44149">
        <ele>78.97</ele>
        <time>2017-01-17T14:03:24Z</time>
      </trkpt>
      <trkpt lat="44.88277" lon="1.4414">
        <ele>78</ele>
        <time>2017-01-17T14:03:43Z</time>
      </trkpt>
      <trkpt lat="44.883" lon="1.44129">
        <ele>78</ele>
        <time>2017-01-17T14:04:03Z</time>
      </trkpt>
      <trkpt lat="44.88322" lon="1.44119">
        <ele>78.97</ele>
        <time>2017-01-17T14:04:21Z</time>
      </trkpt>
      <trkpt lat="44.88341" lon="1.44115">
        <ele>78.97</ele>
        <time>2017-01-17T14:04:39Z</time>
      </trkpt>
      <trkpt lat="44.88346" lon="1.44115">
        <ele>78.97</ele>
        <time>2017-01-17T14:05:01Z</time>
      </trkpt>
      <trkpt lat="44.88351" lon="1.44115">
        <ele>78.97</ele>
        <time>2017-01-17T14:05:27Z</time>
      </trkpt>
      <trkpt lat="44.88349" lon="1.44124">
        <ele>78.97</ele>
        <time>2017-01-17T14:05:56Z</time>
      </trkpt>
      <trkpt lat="44.88349" lon="1.44125">
        <ele>79.45</ele>
        <time>2017-01-17T14:06:17Z</time>
      </trkpt>
      <trkpt lat="44.88361" lon="1.44113">
        <ele>79.45</ele>
        <time>2017-01-17T14:06:32Z</time>
      </trkpt>
      <trkpt lat="44.88379" lon="1.44102">
        <ele>77.52</ele>
        <time>2017-01-17T14:06:47Z</time>
      </trkpt>
      <trkpt lat="44.88382" lon="1.441">
        <ele>77.52</ele>
        <time>2017-01-17T14:06:49Z</time>
      </trkpt>
      <trkpt lat="44.88402" lon="1.44082">
        <ele>79.45</ele>
        <time>2017-01-17T14:07:06Z</time>
      </trkpt>
      <trkpt lat="44.88424" lon="1.44066">
        <ele>80.41</ele>
        <time>2017-01-17T14:07:22Z</time>
      </trkpt>
      <trkpt lat="44.88434" lon="1.44059">
        <ele>80.41</ele>
        <time>2017-01-17T14:07:32Z</time>
      </trkpt>
      <trkpt lat="44.88443" lon="1.44047">
        <ele>81.37</ele>
        <time>2017-01-17T14:07:41Z</time>
      </trkpt>
      <trkpt lat="44.88461" lon="1.4404">
        <ele>81.85</ele>
        <time>2017-01-17T14:07:58Z</time>
      </trkpt>
      <trkpt lat="44.88472" lon="1.44039">
        <ele>81.85</ele>
        <time>2017-01-17T14:08:16Z</time>
      </trkpt>
      <trkpt lat="44.88477" lon="1.44035">
        <ele>81.37</ele>
        <time>2017-01-17T14:08:36Z</time>
      </trkpt>
      <trkpt lat="44.8848" lon="1.44036">
        <ele>81.37</ele>
        <time>2017-01-17T14:09:11Z</time>
      </trkpt>
      <trkpt lat="44.88484" lon="1.44035">
        <ele>81.37</ele>
        <time>2017-01-17T14:09:29Z</time>
      </trkpt>
      <trkpt lat="44.88489" lon="1.44038">
        <ele>82.33</ele>
        <time>2017-01-17T14:09:46Z</time>
      </trkpt>
      <trkpt lat="44.88487" lon="1.44034">
        <ele>85.21</ele>
        <time>2017-01-17T14:09:56Z</time>
      </trkpt>
      <trkpt lat="44.88485" lon="1.44028">
        <ele>87.14</ele>
        <time>2017-01-17T14:10:10Z</time>
      </trkpt>
      <trkpt lat="44.88479" lon="1.44023">
        <ele>88.1</ele>
        <time>2017-01-17T14:10:30Z</time>
      </trkpt>
      <trkpt lat="44.88477" lon="1.44018">
        <ele>91.46</ele>
        <time>2017-01-17T14:10:48Z</time>
      </trkpt>
      <trkpt lat="44.88474" lon="1.44013">
        <ele>94.83</ele>
        <time>2017-01-17T14:10:59Z</time>
      </trkpt>
      <trkpt lat="44.8847" lon="1.44008">
        <ele>98.19</ele>
        <time>2017-01-17T14:11:14Z</time>
      </trkpt>
      <trkpt lat="44.88464" lon="1.43998">
        <ele>101.08</ele>
        <time>2017-01-17T14:11:29Z</time>
      </trkpt>
      <trkpt lat="44.88458" lon="1.43989">
        <ele>103.48</ele>
        <time>2017-01-17T14:11:46Z</time>
      </trkpt>
      <trkpt lat="44.88454" lon="1.43982">
        <ele>106.84</ele>
        <time>2017-01-17T14:12:01Z</time>
      </trkpt>
      <trkpt lat="44.88448" lon="1.43975">
        <ele>106.84</ele>
        <time>2017-01-17T14:12:18Z</time>
      </trkpt>
      <trkpt lat="44.88447" lon="1.4397">
        <ele>107.81</ele>
        <time>2017-01-17T14:12:38Z</time>
      </trkpt>
      <trkpt lat="44.88449" lon="1.43962">
        <ele>107.81</ele>
        <time>2017-01-17T14:12:44Z</time>
      </trkpt>
      <trkpt lat="44.88451" lon="1.43953">
        <ele>106.36</ele>
        <time>2017-01-17T14:12:56Z</time>
      </trkpt>
      <trkpt lat="44.88448" lon="1.43934">
        <ele>106.36</ele>
        <time>2017-01-17T14:13:10Z</time>
      </trkpt>
      <trkpt lat="44.88444" lon="1.4391">
        <ele>105.88</ele>
        <time>2017-01-17T14:13:30Z</time>
      </trkpt>
      <trkpt lat="44.88442" lon="1.4391">
        <ele>105.88</ele>
        <time>2017-01-17T14:13:49Z</time>
      </trkpt>
      <trkpt lat="44.88443" lon="1.4391">
        <ele>105.4</ele>
        <time>2017-01-17T14:14:24Z</time>
      </trkpt>
      <trkpt lat="44.88444" lon="1.43905">
        <ele>106.84</ele>
        <time>2017-01-17T14:14:34Z</time>
      </trkpt>
      <trkpt lat="44.88451" lon="1.43892">
        <ele>107.32</ele>
        <time>2017-01-17T14:14:50Z</time>
      </trkpt>
      <trkpt lat="44.88461" lon="1.43872">
        <ele>107.81</ele>
        <time>2017-01-17T14:15:08Z</time>
      </trkpt>
      <trkpt lat="44.88462" lon="1.43868">
        <ele>107.81</ele>
        <time>2017-01-17T14:15:11Z</time>
      </trkpt>
      <trkpt lat="44.88465" lon="1.43863">
        <ele>109.25</ele>
        <time>2017-01-17T14:15:16Z</time>
      </trkpt>
      <trkpt lat="44.88471" lon="1.43849">
        <ele>111.17</ele>
        <time>2017-01-17T14:15:29Z</time>
      </trkpt>
      <trkpt lat="44.88474" lon="1.43835">
        <ele>113.09</ele>
        <time>2017-01-17T14:15:41Z</time>
      </trkpt>
      <trkpt lat="44.88476" lon="1.43819">
        <ele>115.5</ele>
        <time>2017-01-17T14:15:55Z</time>
      </trkpt>
      <trkpt lat="44.88478" lon="1.43804">
        <ele>118.86</ele>
        <time>2017-01-17T14:16:09Z</time>
      </trkpt>
      <trkpt lat="44.88481" lon="1.4379">
        <ele>121.26</ele>
        <time>2017-01-17T14:16:23Z</time>
      </trkpt>
      <trkpt lat="44.88484" lon="1.43774">
        <ele>123.19</ele>
        <time>2017-01-17T14:16:35Z</time>
      </trkpt>
      <trkpt lat="44.88487" lon="1.43758">
        <ele>125.11</ele>
        <time>2017-01-17T14:16:48Z</time>
      </trkpt>
      <trkpt lat="44.88497" lon="1.43765">
        <ele>126.07</ele>
        <time>2017-01-17T14:17:04Z</time>
      </trkpt>
      <trkpt lat="44.88507" lon="1.4378">
        <ele>126.55</ele>
        <time>2017-01-17T14:17:19Z</time>
      </trkpt>
      <trkpt lat="44.88519" lon="1.43802">
        <ele>126.55</ele>
        <time>2017-01-17T14:17:40Z</time>
      </trkpt>
      <trkpt lat="44.8853" lon="1.43823">
        <ele>126.55</ele>
        <time>2017-01-17T14:17:58Z</time>
      </trkpt>
      <trkpt lat="44.88542" lon="1.43844">
        <ele>126.55</ele>
        <time>2017-01-17T14:18:17Z</time>
      </trkpt>
      <trkpt lat="44.8856" lon="1.43863">
        <ele>126.55</ele>
        <time>2017-01-17T14:18:36Z</time>
      </trkpt>
      <trkpt lat="44.88566" lon="1.43867">
        <ele>125.11</ele>
        <time>2017-01-17T14:18:42Z</time>
      </trkpt>
      <trkpt lat="44.88585" lon="1.43886">
        <ele>124.63</ele>
        <time>2017-01-17T14:19:03Z</time>
      </trkpt>
      <trkpt lat="44.88603" lon="1.43893">
        <ele>126.07</ele>
        <time>2017-01-17T14:19:22Z</time>
      </trkpt>
      <trkpt lat="44.88604" lon="1.43893">
        <ele>126.07</ele>
        <time>2017-01-17T14:19:23Z</time>
      </trkpt>
      <trkpt lat="44.88617" lon="1.43882">
        <ele>127.51</ele>
        <time>2017-01-17T14:19:35Z</time>
      </trkpt>
      <trkpt lat="44.88631" lon="1.43868">
        <ele>129.92</ele>
        <time>2017-01-17T14:19:53Z</time>
      </trkpt>
      <trkpt lat="44.88642" lon="1.43858">
        <ele>132.32</ele>
        <time>2017-01-17T14:20:11Z</time>
      </trkpt>
      <trkpt lat="44.88658" lon="1.43846">
        <ele>134.72</ele>
        <time>2017-01-17T14:20:29Z</time>
      </trkpt>
      <trkpt lat="44.88674" lon="1.43833">
        <ele>136.16</ele>
        <time>2017-01-17T14:20:45Z</time>
      </trkpt>
      <trkpt lat="44.88688" lon="1.43826">
        <ele>139.05</ele>
        <time>2017-01-17T14:21:07Z</time>
      </trkpt>
      <trkpt lat="44.88703" lon="1.43826">
        <ele>139.05</ele>
        <time>2017-01-17T14:21:26Z</time>
      </trkpt>
      <trkpt lat="44.88715" lon="1.43828">
        <ele>138.09</ele>
        <time>2017-01-17T14:21:35Z</time>
      </trkpt>
      <trkpt lat="44.88721" lon="1.43832">
        <ele>136.64</ele>
        <time>2017-01-17T14:21:57Z</time>
      </trkpt>
      <trkpt lat="44.88724" lon="1.43831">
        <ele>136.16</ele>
        <time>2017-01-17T14:22:20Z</time>
      </trkpt>
      <trkpt lat="44.88725" lon="1.43839">
        <ele>136.16</ele>
        <time>2017-01-17T14:22:43Z</time>
      </trkpt>
      <trkpt lat="44.88723" lon="1.43842">
        <ele>137.61</ele>
        <time>2017-01-17T14:23:01Z</time>
      </trkpt>
      <trkpt lat="44.88721" lon="1.43839">
        <ele>137.61</ele>
        <time>2017-01-17T14:23:16Z</time>
      </trkpt>
      <trkpt lat="44.88713" lon="1.43831">
        <ele>139.05</ele>
        <time>2017-01-17T14:23:33Z</time>
      </trkpt>
      <trkpt lat="44.887" lon="1.43826">
        <ele>140.01</ele>
        <time>2017-01-17T14:23:54Z</time>
      </trkpt>
      <trkpt lat="44.88701" lon="1.43817">
        <ele>139.53</ele>
        <time>2017-01-17T14:24:22Z</time>
      </trkpt>
      <trkpt lat="44.88701" lon="1.43819">
        <ele>140.97</ele>
        <time>2017-01-17T14:24:28Z</time>
      </trkpt>
      <trkpt lat="44.88698" lon="1.43816">
        <ele>141.45</ele>
        <time>2017-01-17T14:24:50Z</time>
      </trkpt>
      <trkpt lat="44.88702" lon="1.43817">
        <ele>141.45</ele>
        <time>2017-01-17T14:25:07Z</time>
      </trkpt>
      <trkpt lat="44.88702" lon="1.43818">
        <ele>141.45</ele>
        <time>2017-01-17T14:25:08Z</time>
      </trkpt>
      <trkpt lat="44.88714" lon="1.43814">
        <ele>143.85</ele>
        <time>2017-01-17T14:25:23Z</time>
      </trkpt>
      <trkpt lat="44.8872" lon="1.43817">
        <ele>146.74</ele>
        <time>2017-01-17T14:25:35Z</time>
      </trkpt>
      <trkpt lat="44.88731" lon="1.43816">
        <ele>147.7</ele>
        <time>2017-01-17T14:25:48Z</time>
      </trkpt>
      <trkpt lat="44.8874" lon="1.43814">
        <ele>147.22</ele>
        <time>2017-01-17T14:26:03Z</time>
      </trkpt>
      <trkpt lat="44.88747" lon="1.43806">
        <ele>148.66</ele>
        <time>2017-01-17T14:26:18Z</time>
      </trkpt>
      <trkpt lat="44.88747" lon="1.43805">
        <ele>148.66</ele>
        <time>2017-01-17T14:26:19Z</time>
      </trkpt>
      <trkpt lat="44.88762" lon="1.43801">
        <ele>151.06</ele>
        <time>2017-01-17T14:26:35Z</time>
      </trkpt>
      <trkpt lat="44.88773" lon="1.43798">
        <ele>152.99</ele>
        <time>2017-01-17T14:26:52Z</time>
      </trkpt>
      <trkpt lat="44.88776" lon="1.43799">
        <ele>153.47</ele>
        <time>2017-01-17T14:27:07Z</time>
      </trkpt>
      <trkpt lat="44.88781" lon="1.43793">
        <ele>156.35</ele>
        <time>2017-01-17T14:27:23Z</time>
      </trkpt>
      <trkpt lat="44.88784" lon="1.43788">
        <ele>158.27</ele>
        <time>2017-01-17T14:27:40Z</time>
      </trkpt>
      <trkpt lat="44.8878" lon="1.43781">
        <ele>161.16</ele>
        <time>2017-01-17T14:27:58Z</time>
      </trkpt>
      <trkpt lat="44.8878" lon="1.4378">
        <ele>161.64</ele>
        <time>2017-01-17T14:28:17Z</time>
      </trkpt>
      <trkpt lat="44.8878" lon="1.43777">
        <ele>161.64</ele>
        <time>2017-01-17T14:28:38Z</time>
      </trkpt>
      <trkpt lat="44.88775" lon="1.4377">
        <ele>161.64</ele>
        <time>2017-01-17T14:28:55Z</time>
      </trkpt>
      <trkpt lat="44.88772" lon="1.43765">
        <ele>162.12</ele>
        <time>2017-01-17T14:29:11Z</time>
      </trkpt>
      <trkpt lat="44.88766" lon="1.43751">
        <ele>163.08</ele>
        <time>2017-01-17T14:29:25Z</time>
      </trkpt>
      <trkpt lat="44.88766" lon="1.4375">
        <ele>163.08</ele>
        <time>2017-01-17T14:29:26Z</time>
      </trkpt>
      <trkpt lat="44.88759" lon="1.4373">
        <ele>164.04</ele>
        <time>2017-01-17T14:29:40Z</time>
      </trkpt>
      <trkpt lat="44.88754" lon="1.43722">
        <ele>164.52</ele>
        <time>2017-01-17T14:29:46Z</time>
      </trkpt>
      <trkpt lat="44.88745" lon="1.43706">
        <ele>165</ele>
        <time>2017-01-17T14:30:00Z</time>
      </trkpt>
      <trkpt lat="44.8874" lon="1.43697">
        <ele>165</ele>
        <time>2017-01-17T14:30:08Z</time>
      </trkpt>
      <trkpt lat="44.8873" lon="1.43684">
        <ele>165</ele>
        <time>2017-01-17T14:30:22Z</time>
      </trkpt>
      <trkpt lat="44.88719" lon="1.43666">
        <ele>165</ele>
        <time>2017-01-17T14:30:38Z</time>
      </trkpt>
      <trkpt lat="44.88712" lon="1.43653">
        <ele>163.56</ele>
        <time>2017-01-17T14:30:55Z</time>
      </trkpt>
      <trkpt lat="44.88712" lon="1.43652">
        <ele>163.56</ele>
        <time>2017-01-17T14:30:56Z</time>
      </trkpt>
      <trkpt lat="44.887" lon="1.43632">
        <ele>162.12</ele>
        <time>2017-01-17T14:31:11Z</time>
      </trkpt>
      <trkpt lat="44.88689" lon="1.43608">
        <ele>162.12</ele>
        <time>2017-01-17T14:31:27Z</time>
      </trkpt>
      <trkpt lat="44.88685" lon="1.43593">
        <ele>162.12</ele>
        <time>2017-01-17T14:31:37Z</time>
      </trkpt>
      <trkpt lat="44.88682" lon="1.43567">
        <ele>161.64</ele>
        <time>2017-01-17T14:31:52Z</time>
      </trkpt>
      <trkpt lat="44.88678" lon="1.43543">
        <ele>162.12</ele>
        <time>2017-01-17T14:32:05Z</time>
      </trkpt>
      <trkpt lat="44.88677" lon="1.43537">
        <ele>162.12</ele>
        <time>2017-01-17T14:32:08Z</time>
      </trkpt>
      <trkpt lat="44.88672" lon="1.43511">
        <ele>162.12</ele>
        <time>2017-01-17T14:32:23Z</time>
      </trkpt>
      <trkpt lat="44.88673" lon="1.43488">
        <ele>160.68</ele>
        <time>2017-01-17T14:32:37Z</time>
      </trkpt>
      <trkpt lat="44.88674" lon="1.43468">
        <ele>160.2</ele>
        <time>2017-01-17T14:32:49Z</time>
      </trkpt>
      <trkpt lat="44.8868" lon="1.43461">
        <ele>159.72</ele>
        <time>2017-01-17T14:32:56Z</time>
      </trkpt>
      <trkpt lat="44.88696" lon="1.4345">
        <ele>163.56</ele>
        <time>2017-01-17T14:33:13Z</time>
      </trkpt>
      <trkpt lat="44.88697" lon="1.43447">
        <ele>163.56</ele>
        <time>2017-01-17T14:33:29Z</time>
      </trkpt>
      <trkpt lat="44.88712" lon="1.43437">
        <ele>165.96</ele>
        <time>2017-01-17T14:33:45Z</time>
      </trkpt>
      <trkpt lat="44.8872" lon="1.43429">
        <ele>168.85</ele>
        <time>2017-01-17T14:34:00Z</time>
      </trkpt>
      <trkpt lat="44.88731" lon="1.43417">
        <ele>171.73</ele>
        <time>2017-01-17T14:34:16Z</time>
      </trkpt>
      <trkpt lat="44.88743" lon="1.4341">
        <ele>174.14</ele>
        <time>2017-01-17T14:34:30Z</time>
      </trkpt>
      <trkpt lat="44.88757" lon="1.43405">
        <ele>175.1</ele>
        <time>2017-01-17T14:34:45Z</time>
      </trkpt>
      <trkpt lat="44.88765" lon="1.43399">
        <ele>178.46</ele>
        <time>2017-01-17T14:34:56Z</time>
      </trkpt>
      <trkpt lat="44.88775" lon="1.43396">
        <ele>179.9</ele>
        <time>2017-01-17T14:35:10Z</time>
      </trkpt>
      <trkpt lat="44.88784" lon="1.43391">
        <ele>181.35</ele>
        <time>2017-01-17T14:35:23Z</time>
      </trkpt>
      <trkpt lat="44.88794" lon="1.43386">
        <ele>183.75</ele>
        <time>2017-01-17T14:35:38Z</time>
      </trkpt>
      <trkpt lat="44.88801" lon="1.43382">
        <ele>186.63</ele>
        <time>2017-01-17T14:35:53Z</time>
      </trkpt>
      <trkpt lat="44.88811" lon="1.43375">
        <ele>187.11</ele>
        <time>2017-01-17T14:36:07Z</time>
      </trkpt>
      <trkpt lat="44.88817" lon="1.43373">
        <ele>189.04</ele>
        <time>2017-01-17T14:36:24Z</time>
      </trkpt>
      <trkpt lat="44.8882" lon="1.43368">
        <ele>190</ele>
        <time>2017-01-17T14:36:30Z</time>
      </trkpt>
      <trkpt lat="44.8883" lon="1.43361">
        <ele>189.04</ele>
        <time>2017-01-17T14:36:43Z</time>
      </trkpt>
      <trkpt lat="44.88843" lon="1.43351">
        <ele>191.92</ele>
        <time>2017-01-17T14:36:59Z</time>
      </trkpt>
      <trkpt lat="44.88856" lon="1.43344">
        <ele>193.84</ele>
        <time>2017-01-17T14:37:13Z</time>
      </trkpt>
      <trkpt lat="44.88858" lon="1.43342">
        <ele>193.84</ele>
        <time>2017-01-17T14:37:16Z</time>
      </trkpt>
      <trkpt lat="44.88862" lon="1.4334">
        <ele>192.4</ele>
        <time>2017-01-17T14:37:20Z</time>
      </trkpt>
      <trkpt lat="44.88864" lon="1.43339">
        <ele>194.32</ele>
        <time>2017-01-17T14:37:23Z</time>
      </trkpt>
      <trkpt lat="44.88883" lon="1.43329">
        <ele>195.77</ele>
        <time>2017-01-17T14:37:41Z</time>
      </trkpt>
      <trkpt lat="44.88884" lon="1.43328">
        <ele>196.25</ele>
        <time>2017-01-17T14:37:43Z</time>
      </trkpt>
      <trkpt lat="44.88906" lon="1.4332">
        <ele>198.17</ele>
        <time>2017-01-17T14:38:02Z</time>
      </trkpt>
      <trkpt lat="44.88926" lon="1.43313">
        <ele>198.65</ele>
        <time>2017-01-17T14:38:20Z</time>
      </trkpt>
      <trkpt lat="44.88947" lon="1.43307">
        <ele>200.09</ele>
        <time>2017-01-17T14:38:39Z</time>
      </trkpt>
      <trkpt lat="44.88963" lon="1.43298">
        <ele>200.57</ele>
        <time>2017-01-17T14:38:55Z</time>
      </trkpt>
      <trkpt lat="44.88976" lon="1.43291">
        <ele>199.61</ele>
        <time>2017-01-17T14:39:09Z</time>
      </trkpt>
      <trkpt lat="44.88987" lon="1.43284">
        <ele>202.98</ele>
        <time>2017-01-17T14:39:20Z</time>
      </trkpt>
      <trkpt lat="44.88993" lon="1.43281">
        <ele>204.42</ele>
        <time>2017-01-17T14:39:25Z</time>
      </trkpt>
      <trkpt lat="44.89002" lon="1.4328">
        <ele>204.9</ele>
        <time>2017-01-17T14:39:39Z</time>
      </trkpt>
      <trkpt lat="44.89014" lon="1.43264">
        <ele>206.82</ele>
        <time>2017-01-17T14:39:53Z</time>
      </trkpt>
      <trkpt lat="44.89024" lon="1.43243">
        <ele>209.22</ele>
        <time>2017-01-17T14:40:10Z</time>
      </trkpt>
      <trkpt lat="44.89036" lon="1.43227">
        <ele>212.11</ele>
        <time>2017-01-17T14:40:24Z</time>
      </trkpt>
      <trkpt lat="44.89046" lon="1.43213">
        <ele>214.99</ele>
        <time>2017-01-17T14:40:37Z</time>
      </trkpt>
      <trkpt lat="44.89057" lon="1.43195">
        <ele>215.47</ele>
        <time>2017-01-17T14:40:52Z</time>
      </trkpt>
      <trkpt lat="44.89058" lon="1.43193">
        <ele>215.95</ele>
        <time>2017-01-17T14:40:54Z</time>
      </trkpt>
      <trkpt lat="44.89067" lon="1.43178">
        <ele>217.88</ele>
        <time>2017-01-17T14:41:09Z</time>
      </trkpt>
      <trkpt lat="44.89069" lon="1.43172">
        <ele>217.88</ele>
        <time>2017-01-17T14:41:13Z</time>
      </trkpt>
      <trkpt lat="44.8907" lon="1.43167">
        <ele>218.36</ele>
        <time>2017-01-17T14:41:16Z</time>
      </trkpt>
      <trkpt lat="44.89071" lon="1.43162">
        <ele>218.84</ele>
        <time>2017-01-17T14:41:20Z</time>
      </trkpt>
      <trkpt lat="44.89075" lon="1.43151">
        <ele>219.32</ele>
        <time>2017-01-17T14:41:31Z</time>
      </trkpt>
      <trkpt lat="44.89077" lon="1.43144">
        <ele>219.8</ele>
        <time>2017-01-17T14:41:39Z</time>
      </trkpt>
      <trkpt lat="44.89083" lon="1.43121">
        <ele>221.24</ele>
        <time>2017-01-17T14:41:56Z</time>
      </trkpt>
      <trkpt lat="44.89088" lon="1.43099">
        <ele>222.68</ele>
        <time>2017-01-17T14:42:12Z</time>
      </trkpt>
      <trkpt lat="44.89096" lon="1.43081">
        <ele>224.61</ele>
        <time>2017-01-17T14:42:29Z</time>
      </trkpt>
      <trkpt lat="44.89102" lon="1.43065">
        <ele>226.05</ele>
        <time>2017-01-17T14:42:43Z</time>
      </trkpt>
      <trkpt lat="44.8911" lon="1.43045">
        <ele>227.49</ele>
        <time>2017-01-17T14:43:00Z</time>
      </trkpt>
      <trkpt lat="44.89118" lon="1.43027">
        <ele>229.89</ele>
        <time>2017-01-17T14:43:15Z</time>
      </trkpt>
      <trkpt lat="44.89126" lon="1.4301">
        <ele>232.78</ele>
        <time>2017-01-17T14:43:29Z</time>
      </trkpt>
      <trkpt lat="44.89131" lon="1.42991">
        <ele>234.7</ele>
        <time>2017-01-17T14:43:45Z</time>
      </trkpt>
      <trkpt lat="44.89136" lon="1.42972">
        <ele>235.66</ele>
        <time>2017-01-17T14:44:01Z</time>
      </trkpt>
      <trkpt lat="44.89142" lon="1.42952">
        <ele>237.58</ele>
        <time>2017-01-17T14:44:17Z</time>
      </trkpt>
      <trkpt lat="44.89148" lon="1.42934">
        <ele>239.99</ele>
        <time>2017-01-17T14:44:33Z</time>
      </trkpt>
      <trkpt lat="44.89155" lon="1.42911">
        <ele>241.43</ele>
        <time>2017-01-17T14:44:50Z</time>
      </trkpt>
      <trkpt lat="44.8916" lon="1.42891">
        <ele>243.83</ele>
        <time>2017-01-17T14:45:04Z</time>
      </trkpt>
      <trkpt lat="44.89167" lon="1.42871">
        <ele>245.27</ele>
        <time>2017-01-17T14:45:20Z</time>
      </trkpt>
      <trkpt lat="44.89173" lon="1.42849">
        <ele>247.2</ele>
        <time>2017-01-17T14:45:36Z</time>
      </trkpt>
      <trkpt lat="44.89176" lon="1.42821">
        <ele>248.16</ele>
        <time>2017-01-17T14:45:54Z</time>
      </trkpt>
      <trkpt lat="44.89174" lon="1.42818">
        <ele>246.72</ele>
        <time>2017-01-17T14:45:57Z</time>
      </trkpt>
      <trkpt lat="44.89172" lon="1.4281">
        <ele>244.79</ele>
        <time>2017-01-17T14:46:12Z</time>
      </trkpt>
      <trkpt lat="44.89173" lon="1.42812">
        <ele>246.23</ele>
        <time>2017-01-17T14:46:24Z</time>
      </trkpt>
      <trkpt lat="44.89176" lon="1.42813">
        <ele>244.79</ele>
        <time>2017-01-17T14:46:50Z</time>
      </trkpt>
      <trkpt lat="44.89177" lon="1.42816">
        <ele>244.79</ele>
        <time>2017-01-17T14:47:13Z</time>
      </trkpt>
      <trkpt lat="44.89181" lon="1.42822">
        <ele>246.23</ele>
        <time>2017-01-17T14:47:19Z</time>
      </trkpt>
      <trkpt lat="44.89187" lon="1.42825">
        <ele>249.12</ele>
        <time>2017-01-17T14:47:31Z</time>
      </trkpt>
      <trkpt lat="44.89193" lon="1.42807">
        <ele>252</ele>
        <time>2017-01-17T14:47:48Z</time>
      </trkpt>
      <trkpt lat="44.89202" lon="1.42785">
        <ele>253.44</ele>
        <time>2017-01-17T14:48:07Z</time>
      </trkpt>
      <trkpt lat="44.89214" lon="1.42767">
        <ele>255.37</ele>
        <time>2017-01-17T14:48:24Z</time>
      </trkpt>
      <trkpt lat="44.89224" lon="1.42753">
        <ele>256.81</ele>
        <time>2017-01-17T14:48:39Z</time>
      </trkpt>
      <trkpt lat="44.89239" lon="1.42734">
        <ele>259.69</ele>
        <time>2017-01-17T14:48:56Z</time>
      </trkpt>
      <trkpt lat="44.89255" lon="1.42713">
        <ele>261.62</ele>
        <time>2017-01-17T14:49:14Z</time>
      </trkpt>
      <trkpt lat="44.89273" lon="1.42695">
        <ele>264.02</ele>
        <time>2017-01-17T14:49:32Z</time>
      </trkpt>
      <trkpt lat="44.89275" lon="1.42692">
        <ele>264.02</ele>
        <time>2017-01-17T14:49:34Z</time>
      </trkpt>
      <trkpt lat="44.89283" lon="1.42685">
        <ele>265.46</ele>
        <time>2017-01-17T14:49:42Z</time>
      </trkpt>
      <trkpt lat="44.89284" lon="1.42683">
        <ele>265.46</ele>
        <time>2017-01-17T14:49:44Z</time>
      </trkpt>
      <trkpt lat="44.89298" lon="1.42675">
        <ele>266.9</ele>
        <time>2017-01-17T14:49:56Z</time>
      </trkpt>
      <trkpt lat="44.89313" lon="1.42662">
        <ele>267.86</ele>
        <time>2017-01-17T14:50:12Z</time>
      </trkpt>
      <trkpt lat="44.89322" lon="1.42654">
        <ele>268.35</ele>
        <time>2017-01-17T14:50:22Z</time>
      </trkpt>
      <trkpt lat="44.89344" lon="1.42646">
        <ele>271.23</ele>
        <time>2017-01-17T14:50:40Z</time>
      </trkpt>
      <trkpt lat="44.89348" lon="1.42645">
        <ele>269.79</ele>
        <time>2017-01-17T14:50:43Z</time>
      </trkpt>
      <trkpt lat="44.89352" lon="1.42645">
        <ele>272.19</ele>
        <time>2017-01-17T14:50:46Z</time>
      </trkpt>
      <trkpt lat="44.89369" lon="1.42645">
        <ele>273.15</ele>
        <time>2017-01-17T14:51:01Z</time>
      </trkpt>
      <trkpt lat="44.89379" lon="1.42643">
        <ele>274.11</ele>
        <time>2017-01-17T14:51:10Z</time>
      </trkpt>
      <trkpt lat="44.89393" lon="1.42637">
        <ele>275.56</ele>
        <time>2017-01-17T14:51:25Z</time>
      </trkpt>
      <trkpt lat="44.89408" lon="1.42638">
        <ele>278.44</ele>
        <time>2017-01-17T14:51:38Z</time>
      </trkpt>
      <trkpt lat="44.89423" lon="1.42638">
        <ele>280.84</ele>
        <time>2017-01-17T14:51:54Z</time>
      </trkpt>
      <trkpt lat="44.89426" lon="1.42636">
        <ele>280.84</ele>
        <time>2017-01-17T14:51:57Z</time>
      </trkpt>
      <trkpt lat="44.89445" lon="1.42628">
        <ele>282.77</ele>
        <time>2017-01-17T14:52:14Z</time>
      </trkpt>
      <trkpt lat="44.8946" lon="1.42613">
        <ele>285.17</ele>
        <time>2017-01-17T14:52:30Z</time>
      </trkpt>
      <trkpt lat="44.89468" lon="1.426">
        <ele>287.09</ele>
        <time>2017-01-17T14:52:41Z</time>
      </trkpt>
      <trkpt lat="44.89473" lon="1.42579">
        <ele>288.05</ele>
        <time>2017-01-17T14:52:57Z</time>
      </trkpt>
      <trkpt lat="44.89476" lon="1.42574">
        <ele>289.01</ele>
        <time>2017-01-17T14:53:02Z</time>
      </trkpt>
      <trkpt lat="44.89489" lon="1.42553">
        <ele>290.94</ele>
        <time>2017-01-17T14:53:20Z</time>
      </trkpt>
      <trkpt lat="44.89501" lon="1.42534">
        <ele>292.38</ele>
        <time>2017-01-17T14:53:36Z</time>
      </trkpt>
      <trkpt lat="44.8951" lon="1.42523">
        <ele>292.86</ele>
        <time>2017-01-17T14:53:46Z</time>
      </trkpt>
      <trkpt lat="44.89505" lon="1.42506">
        <ele>293.34</ele>
        <time>2017-01-17T14:54:00Z</time>
      </trkpt>
      <trkpt lat="44.89503" lon="1.42482">
        <ele>294.78</ele>
        <time>2017-01-17T14:54:16Z</time>
      </trkpt>
      <trkpt lat="44.89507" lon="1.4247">
        <ele>295.74</ele>
        <time>2017-01-17T14:54:32Z</time>
      </trkpt>
      <trkpt lat="44.89508" lon="1.42463">
        <ele>295.74</ele>
        <time>2017-01-17T14:54:56Z</time>
      </trkpt>
      <trkpt lat="44.89514" lon="1.42463">
        <ele>296.22</ele>
        <time>2017-01-17T14:55:20Z</time>
      </trkpt>
      <trkpt lat="44.89513" lon="1.42461">
        <ele>296.22</ele>
        <time>2017-01-17T14:55:49Z</time>
      </trkpt>
      <trkpt lat="44.89512" lon="1.42457">
        <ele>295.74</ele>
        <time>2017-01-17T14:56:02Z</time>
      </trkpt>
      <trkpt lat="44.89514" lon="1.4246">
        <ele>295.74</ele>
        <time>2017-01-17T14:56:24Z</time>
      </trkpt>
      <trkpt lat="44.89512" lon="1.42459">
        <ele>295.74</ele>
        <time>2017-01-17T14:56:50Z</time>
      </trkpt>
      <trkpt lat="44.89512" lon="1.4246">
        <ele>295.74</ele>
        <time>2017-01-17T14:56:51Z</time>
      </trkpt>
      <trkpt lat="44.89514" lon="1.42458">
        <ele>297.18</ele>
        <time>2017-01-17T14:57:12Z</time>
      </trkpt>
      <trkpt lat="44.89511" lon="1.42458">
        <ele>295.74</ele>
        <time>2017-01-17T14:57:41Z</time>
      </trkpt>
      <trkpt lat="44.8951" lon="1.42458">
        <ele>295.26</ele>
        <time>2017-01-17T14:57:48Z</time>
      </trkpt>
      <trkpt lat="44.89511" lon="1.42459">
        <ele>296.7</ele>
        <time>2017-01-17T14:57:52Z</time>
      </trkpt>
      <trkpt lat="44.89513" lon="1.42458">
        <ele>295.26</ele>
        <time>2017-01-17T14:57:57Z</time>
      </trkpt>
      <trkpt lat="44.89517" lon="1.42458">
        <ele>295.26</ele>
        <time>2017-01-17T14:58:23Z</time>
      </trkpt>
      <trkpt lat="44.89513" lon="1.42456">
        <ele>295.26</ele>
        <time>2017-01-17T14:58:49Z</time>
      </trkpt>
      <trkpt lat="44.89511" lon="1.42451">
        <ele>295.26</ele>
        <time>2017-01-17T14:59:08Z</time>
      </trkpt>
      <trkpt lat="44.89512" lon="1.42444">
        <ele>295.26</ele>
        <time>2017-01-17T14:59:14Z</time>
      </trkpt>
      <trkpt lat="44.89512" lon="1.4244">
        <ele>295.26</ele>
        <time>2017-01-17T14:59:17Z</time>
      </trkpt>
      <trkpt lat="44.89509" lon="1.42422">
        <ele>296.7</ele>
        <time>2017-01-17T14:59:28Z</time>
      </trkpt>
      <trkpt lat="44.89508" lon="1.42397">
        <ele>296.7</ele>
        <time>2017-01-17T14:59:45Z</time>
      </trkpt>
      <trkpt lat="44.89512" lon="1.42384">
        <ele>295.26</ele>
        <time>2017-01-17T14:59:57Z</time>
      </trkpt>
      <trkpt lat="44.89515" lon="1.42379">
        <ele>294.78</ele>
        <time>2017-01-17T15:00:12Z</time>
      </trkpt>
      <trkpt lat="44.89515" lon="1.42378">
        <ele>294.78</ele>
        <time>2017-01-17T15:00:13Z</time>
      </trkpt>
      <trkpt lat="44.89517" lon="1.42367">
        <ele>296.22</ele>
        <time>2017-01-17T15:00:29Z</time>
      </trkpt>
      <trkpt lat="44.89517" lon="1.42353">
        <ele>295.74</ele>
        <time>2017-01-17T15:00:37Z</time>
      </trkpt>
      <trkpt lat="44.89517" lon="1.42349">
        <ele>294.78</ele>
        <time>2017-01-17T15:00:39Z</time>
      </trkpt>
      <trkpt lat="44.89529" lon="1.42315">
        <ele>294.78</ele>
        <time>2017-01-17T15:00:59Z</time>
      </trkpt>
      <trkpt lat="44.89545" lon="1.42282">
        <ele>291.9</ele>
        <time>2017-01-17T15:01:21Z</time>
      </trkpt>
      <trkpt lat="44.89548" lon="1.42277">
        <ele>294.3</ele>
        <time>2017-01-17T15:01:25Z</time>
      </trkpt>
      <trkpt lat="44.8956" lon="1.4226">
        <ele>291.42</ele>
        <time>2017-01-17T15:01:40Z</time>
      </trkpt>
      <trkpt lat="44.89565" lon="1.42255">
        <ele>291.42</ele>
        <time>2017-01-17T15:01:50Z</time>
      </trkpt>
      <trkpt lat="44.89573" lon="1.42246">
        <ele>291.42</ele>
        <time>2017-01-17T15:02:06Z</time>
      </trkpt>
      <trkpt lat="44.8958" lon="1.42239">
        <ele>291.42</ele>
        <time>2017-01-17T15:02:18Z</time>
      </trkpt>
      <trkpt lat="44.896" lon="1.42223">
        <ele>291.42</ele>
        <time>2017-01-17T15:02:37Z</time>
      </trkpt>
      <trkpt lat="44.89611" lon="1.42216">
        <ele>290.94</ele>
        <time>2017-01-17T15:02:47Z</time>
      </trkpt>
      <trkpt lat="44.89628" lon="1.42196">
        <ele>290.46</ele>
        <time>2017-01-17T15:03:05Z</time>
      </trkpt>
      <trkpt lat="44.89631" lon="1.42192">
        <ele>291.42</ele>
        <time>2017-01-17T15:03:08Z</time>
      </trkpt>
      <trkpt lat="44.89638" lon="1.42182">
        <ele>290.46</ele>
        <time>2017-01-17T15:03:15Z</time>
      </trkpt>
      <trkpt lat="44.8964" lon="1.4218">
        <ele>291.42</ele>
        <time>2017-01-17T15:03:17Z</time>
      </trkpt>
      <trkpt lat="44.89645" lon="1.42177">
        <ele>290.94</ele>
        <time>2017-01-17T15:03:22Z</time>
      </trkpt>
      <trkpt lat="44.89656" lon="1.42169">
        <ele>292.38</ele>
        <time>2017-01-17T15:03:32Z</time>
      </trkpt>
      <trkpt lat="44.89658" lon="1.42168">
        <ele>291.42</ele>
        <time>2017-01-17T15:03:37Z</time>
      </trkpt>
      <trkpt lat="44.89659" lon="1.42169">
        <ele>292.86</ele>
        <time>2017-01-17T15:03:43Z</time>
      </trkpt>
      <trkpt lat="44.89662" lon="1.42168">
        <ele>293.34</ele>
        <time>2017-01-17T15:03:47Z</time>
      </trkpt>
      <trkpt lat="44.8967" lon="1.4216">
        <ele>293.34</ele>
        <time>2017-01-17T15:03:57Z</time>
      </trkpt>
      <trkpt lat="44.89671" lon="1.42156">
        <ele>293.34</ele>
        <time>2017-01-17T15:04:00Z</time>
      </trkpt>
      <trkpt lat="44.8967" lon="1.42146">
        <ele>292.86</ele>
        <time>2017-01-17T15:04:07Z</time>
      </trkpt>
      <trkpt lat="44.89666" lon="1.42126">
        <ele>290.46</ele>
        <time>2017-01-17T15:04:20Z</time>
      </trkpt>
      <trkpt lat="44.89667" lon="1.42095">
        <ele>287.57</ele>
        <time>2017-01-17T15:04:39Z</time>
      </trkpt>
      <trkpt lat="44.89674" lon="1.42076">
        <ele>286.61</ele>
        <time>2017-01-17T15:04:52Z</time>
      </trkpt>
      <trkpt lat="44.89679" lon="1.42055">
        <ele>285.17</ele>
        <time>2017-01-17T15:05:07Z</time>
      </trkpt>
      <trkpt lat="44.89686" lon="1.42034">
        <ele>283.25</ele>
        <time>2017-01-17T15:05:23Z</time>
      </trkpt>
      <trkpt lat="44.89697" lon="1.42014">
        <ele>281.8</ele>
        <time>2017-01-17T15:05:39Z</time>
      </trkpt>
      <trkpt lat="44.8971" lon="1.41993">
        <ele>280.84</ele>
        <time>2017-01-17T15:05:57Z</time>
      </trkpt>
      <trkpt lat="44.89723" lon="1.4197">
        <ele>278.44</ele>
        <time>2017-01-17T15:06:14Z</time>
      </trkpt>
      <trkpt lat="44.89732" lon="1.41948">
        <ele>277</ele>
        <time>2017-01-17T15:06:29Z</time>
      </trkpt>
      <trkpt lat="44.89736" lon="1.41934">
        <ele>274.59</ele>
        <time>2017-01-17T15:06:40Z</time>
      </trkpt>
      <trkpt lat="44.89737" lon="1.41909">
        <ele>273.63</ele>
        <time>2017-01-17T15:06:54Z</time>
      </trkpt>
      <trkpt lat="44.89738" lon="1.41902">
        <ele>272.19</ele>
        <time>2017-01-17T15:06:58Z</time>
      </trkpt>
      <trkpt lat="44.89739" lon="1.41891">
        <ele>273.63</ele>
        <time>2017-01-17T15:07:05Z</time>
      </trkpt>
      <trkpt lat="44.89735" lon="1.4187">
        <ele>276.04</ele>
        <time>2017-01-17T15:07:21Z</time>
      </trkpt>
      <trkpt lat="44.89727" lon="1.4186">
        <ele>276.52</ele>
        <time>2017-01-17T15:07:32Z</time>
      </trkpt>
      <trkpt lat="44.8972" lon="1.41855">
        <ele>277.48</ele>
        <time>2017-01-17T15:07:39Z</time>
      </trkpt>
      <trkpt lat="44.89713" lon="1.41848">
        <ele>277.96</ele>
        <time>2017-01-17T15:07:48Z</time>
      </trkpt>
      <trkpt lat="44.89702" lon="1.41836">
        <ele>279.4</ele>
        <time>2017-01-17T15:08:02Z</time>
      </trkpt>
      <trkpt lat="44.89695" lon="1.41825">
        <ele>281.8</ele>
        <time>2017-01-17T15:08:17Z</time>
      </trkpt>
      <trkpt lat="44.89699" lon="1.4181">
        <ele>284.21</ele>
        <time>2017-01-17T15:08:31Z</time>
      </trkpt>
      <trkpt lat="44.89701" lon="1.41791">
        <ele>286.13</ele>
        <time>2017-01-17T15:08:46Z</time>
      </trkpt>
      <trkpt lat="44.89701" lon="1.41786">
        <ele>286.13</ele>
        <time>2017-01-17T15:08:49Z</time>
      </trkpt>
      <trkpt lat="44.89701" lon="1.41762">
        <ele>286.13</ele>
        <time>2017-01-17T15:09:04Z</time>
      </trkpt>
      <trkpt lat="44.89705" lon="1.41744">
        <ele>287.09</ele>
        <time>2017-01-17T15:09:17Z</time>
      </trkpt>
      <trkpt lat="44.89709" lon="1.41734">
        <ele>287.09</ele>
        <time>2017-01-17T15:09:23Z</time>
      </trkpt>
      <trkpt lat="44.89712" lon="1.41724">
        <ele>285.65</ele>
        <time>2017-01-17T15:09:28Z</time>
      </trkpt>
      <trkpt lat="44.89718" lon="1.41701">
        <ele>285.17</ele>
        <time>2017-01-17T15:09:43Z</time>
      </trkpt>
      <trkpt lat="44.89719" lon="1.41696">
        <ele>286.61</ele>
        <time>2017-01-17T15:09:46Z</time>
      </trkpt>
      <trkpt lat="44.89718" lon="1.41693">
        <ele>286.61</ele>
        <time>2017-01-17T15:09:48Z</time>
      </trkpt>
      <trkpt lat="44.89717" lon="1.4167">
        <ele>286.61</ele>
        <time>2017-01-17T15:10:03Z</time>
      </trkpt>
      <trkpt lat="44.89708" lon="1.41651">
        <ele>287.09</ele>
        <time>2017-01-17T15:10:19Z</time>
      </trkpt>
      <trkpt lat="44.89702" lon="1.41641">
        <ele>287.09</ele>
        <time>2017-01-17T15:10:28Z</time>
      </trkpt>
      <trkpt lat="44.8969" lon="1.41621">
        <ele>288.05</ele>
        <time>2017-01-17T15:10:47Z</time>
      </trkpt>
      <trkpt lat="44.89682" lon="1.41604">
        <ele>288.53</ele>
        <time>2017-01-17T15:11:01Z</time>
      </trkpt>
      <trkpt lat="44.89675" lon="1.41588">
        <ele>289.49</ele>
        <time>2017-01-17T15:11:16Z</time>
      </trkpt>
      <trkpt lat="44.89672" lon="1.41565">
        <ele>289.49</ele>
        <time>2017-01-17T15:11:31Z</time>
      </trkpt>
      <trkpt lat="44.89673" lon="1.41541">
        <ele>288.53</ele>
        <time>2017-01-17T15:11:45Z</time>
      </trkpt>
      <trkpt lat="44.89673" lon="1.41537">
        <ele>288.53</ele>
        <time>2017-01-17T15:11:47Z</time>
      </trkpt>
      <trkpt lat="44.89679" lon="1.41519">
        <ele>289.49</ele>
        <time>2017-01-17T15:12:00Z</time>
      </trkpt>
      <trkpt lat="44.89681" lon="1.4151">
        <ele>289.49</ele>
        <time>2017-01-17T15:12:05Z</time>
      </trkpt>
      <trkpt lat="44.89693" lon="1.41485">
        <ele>288.05</ele>
        <time>2017-01-17T15:12:23Z</time>
      </trkpt>
      <trkpt lat="44.89704" lon="1.4147">
        <ele>288.53</ele>
        <time>2017-01-17T15:12:37Z</time>
      </trkpt>
      <trkpt lat="44.89707" lon="1.41458">
        <ele>288.05</ele>
        <time>2017-01-17T15:12:45Z</time>
      </trkpt>
      <trkpt lat="44.89713" lon="1.41437">
        <ele>287.57</ele>
        <time>2017-01-17T15:13:00Z</time>
      </trkpt>
      <trkpt lat="44.89715" lon="1.41413">
        <ele>287.57</ele>
        <time>2017-01-17T15:13:15Z</time>
      </trkpt>
      <trkpt lat="44.89714" lon="1.41397">
        <ele>288.53</ele>
        <time>2017-01-17T15:13:24Z</time>
      </trkpt>
      <trkpt lat="44.89709" lon="1.41376">
        <ele>287.57</ele>
        <time>2017-01-17T15:13:38Z</time>
      </trkpt>
      <trkpt lat="44.89706" lon="1.41354">
        <ele>285.17</ele>
        <time>2017-01-17T15:13:54Z</time>
      </trkpt>
      <trkpt lat="44.89705" lon="1.4135">
        <ele>285.17</ele>
        <time>2017-01-17T15:13:57Z</time>
      </trkpt>
      <trkpt lat="44.89704" lon="1.41342">
        <ele>284.21</ele>
        <time>2017-01-17T15:14:03Z</time>
      </trkpt>
      <trkpt lat="44.89701" lon="1.41309">
        <ele>283.25</ele>
        <time>2017-01-17T15:14:21Z</time>
      </trkpt>
      <trkpt lat="44.89697" lon="1.41279">
        <ele>280.36</ele>
        <time>2017-01-17T15:14:40Z</time>
      </trkpt>
      <trkpt lat="44.89695" lon="1.41262">
        <ele>277</ele>
        <time>2017-01-17T15:14:52Z</time>
      </trkpt>
      <trkpt lat="44.89694" lon="1.41245">
        <ele>275.56</ele>
        <time>2017-01-17T15:15:05Z</time>
      </trkpt>
      <trkpt lat="44.89691" lon="1.4122">
        <ele>272.67</ele>
        <time>2017-01-17T15:15:23Z</time>
      </trkpt>
      <trkpt lat="44.89689" lon="1.412">
        <ele>269.31</ele>
        <time>2017-01-17T15:15:37Z</time>
      </trkpt>
      <trkpt lat="44.8969" lon="1.41191">
        <ele>268.83</ele>
        <time>2017-01-17T15:15:44Z</time>
      </trkpt>
      <trkpt lat="44.89687" lon="1.41171">
        <ele>266.42</ele>
        <time>2017-01-17T15:15:59Z</time>
      </trkpt>
      <trkpt lat="44.89684" lon="1.41148">
        <ele>264.5</ele>
        <time>2017-01-17T15:16:16Z</time>
      </trkpt>
      <trkpt lat="44.89684" lon="1.41139">
        <ele>264.5</ele>
        <time>2017-01-17T15:16:24Z</time>
      </trkpt>
      <trkpt lat="44.89684" lon="1.41134">
        <ele>264.02</ele>
        <time>2017-01-17T15:16:28Z</time>
      </trkpt>
      <trkpt lat="44.89676" lon="1.41119">
        <ele>260.65</ele>
        <time>2017-01-17T15:16:46Z</time>
      </trkpt>
      <trkpt lat="44.89667" lon="1.41114">
        <ele>257.77</ele>
        <time>2017-01-17T15:16:59Z</time>
      </trkpt>
      <trkpt lat="44.89657" lon="1.41109">
        <ele>253.93</ele>
        <time>2017-01-17T15:17:13Z</time>
      </trkpt>
      <trkpt lat="44.89646" lon="1.41102">
        <ele>251.04</ele>
        <time>2017-01-17T15:17:25Z</time>
      </trkpt>
      <trkpt lat="44.89632" lon="1.41095">
        <ele>248.16</ele>
        <time>2017-01-17T15:17:42Z</time>
      </trkpt>
      <trkpt lat="44.89631" lon="1.41094">
        <ele>248.16</ele>
        <time>2017-01-17T15:17:43Z</time>
      </trkpt>
      <trkpt lat="44.89622" lon="1.41082">
        <ele>244.79</ele>
        <time>2017-01-17T15:17:56Z</time>
      </trkpt>
      <trkpt lat="44.89625" lon="1.41068">
        <ele>243.83</ele>
        <time>2017-01-17T15:18:13Z</time>
      </trkpt>
      <trkpt lat="44.89631" lon="1.41058">
        <ele>243.83</ele>
        <time>2017-01-17T15:18:22Z</time>
      </trkpt>
      <trkpt lat="44.89641" lon="1.41035">
        <ele>246.23</ele>
        <time>2017-01-17T15:18:40Z</time>
      </trkpt>
      <trkpt lat="44.89649" lon="1.41016">
        <ele>246.72</ele>
        <time>2017-01-17T15:18:55Z</time>
      </trkpt>
      <trkpt lat="44.89657" lon="1.40995">
        <ele>246.72</ele>
        <time>2017-01-17T15:19:12Z</time>
      </trkpt>
      <trkpt lat="44.89661" lon="1.40984">
        <ele>246.72</ele>
        <time>2017-01-17T15:19:20Z</time>
      </trkpt>
      <trkpt lat="44.8967" lon="1.40958">
        <ele>247.2</ele>
        <time>2017-01-17T15:19:37Z</time>
      </trkpt>
      <trkpt lat="44.89679" lon="1.40928">
        <ele>248.16</ele>
        <time>2017-01-17T15:19:55Z</time>
      </trkpt>
      <trkpt lat="44.89684" lon="1.40902">
        <ele>248.16</ele>
        <time>2017-01-17T15:20:10Z</time>
      </trkpt>
      <trkpt lat="44.8968" lon="1.40863">
        <ele>248.16</ele>
        <time>2017-01-17T15:20:29Z</time>
      </trkpt>
      <trkpt lat="44.89672" lon="1.4083">
        <ele>248.64</ele>
        <time>2017-01-17T15:20:48Z</time>
      </trkpt>
      <trkpt lat="44.8967" lon="1.40805">
        <ele>249.6</ele>
        <time>2017-01-17T15:21:03Z</time>
      </trkpt>
      <trkpt lat="44.89671" lon="1.40775">
        <ele>250.56</ele>
        <time>2017-01-17T15:21:20Z</time>
      </trkpt>
      <trkpt lat="44.89674" lon="1.40742">
        <ele>251.04</ele>
        <time>2017-01-17T15:21:41Z</time>
      </trkpt>
      <trkpt lat="44.89678" lon="1.40712">
        <ele>253.44</ele>
        <time>2017-01-17T15:22:00Z</time>
      </trkpt>
      <trkpt lat="44.89687" lon="1.40678">
        <ele>255.85</ele>
        <time>2017-01-17T15:22:21Z</time>
      </trkpt>
      <trkpt lat="44.89697" lon="1.40656">
        <ele>255.85</ele>
        <time>2017-01-17T15:22:37Z</time>
      </trkpt>
      <trkpt lat="44.89695" lon="1.40653">
        <ele>255.85</ele>
        <time>2017-01-17T15:22:50Z</time>
      </trkpt>
      <trkpt lat="44.89694" lon="1.40654">
        <ele>255.85</ele>
        <time>2017-01-17T15:22:51Z</time>
      </trkpt>
      <trkpt lat="44.89691" lon="1.40658">
        <ele>257.29</ele>
        <time>2017-01-17T15:22:57Z</time>
      </trkpt>
      <trkpt lat="44.89685" lon="1.40667">
        <ele>258.25</ele>
        <time>2017-01-17T15:23:11Z</time>
      </trkpt>
      <trkpt lat="44.8968" lon="1.40662">
        <ele>259.69</ele>
        <time>2017-01-17T15:23:21Z</time>
      </trkpt>
      <trkpt lat="44.89675" lon="1.40658">
        <ele>260.65</ele>
        <time>2017-01-17T15:23:36Z</time>
      </trkpt>
      <trkpt lat="44.89674" lon="1.40658">
        <ele>260.65</ele>
        <time>2017-01-17T15:23:53Z</time>
      </trkpt>
      <trkpt lat="44.8967" lon="1.40654">
        <ele>261.14</ele>
        <time>2017-01-17T15:24:15Z</time>
      </trkpt>
      <trkpt lat="44.89669" lon="1.40653">
        <ele>261.62</ele>
        <time>2017-01-17T15:24:32Z</time>
      </trkpt>
      <trkpt lat="44.89669" lon="1.40652">
        <ele>260.17</ele>
        <time>2017-01-17T15:24:42Z</time>
      </trkpt>
      <trkpt lat="44.89669" lon="1.40651">
        <ele>260.17</ele>
        <time>2017-01-17T15:24:59Z</time>
      </trkpt>
      <trkpt lat="44.89669" lon="1.40651">
        <ele>261.14</ele>
        <time>2017-01-17T15:25:10Z</time>
      </trkpt>
      <trkpt lat="44.89668" lon="1.40652">
        <ele>260.65</ele>
        <time>2017-01-17T15:25:16Z</time>
      </trkpt>
      <trkpt lat="44.89668" lon="1.40653">
        <ele>261.62</ele>
        <time>2017-01-17T15:25:20Z</time>
      </trkpt>
      <trkpt lat="44.89665" lon="1.40649">
        <ele>261.62</ele>
        <time>2017-01-17T15:25:34Z</time>
      </trkpt>
      <trkpt lat="44.89664" lon="1.40649">
        <ele>260.65</ele>
        <time>2017-01-17T15:25:36Z</time>
      </trkpt>
      <trkpt lat="44.8966" lon="1.40642">
        <ele>260.17</ele>
        <time>2017-01-17T15:25:52Z</time>
      </trkpt>
      <trkpt lat="44.89653" lon="1.40634">
        <ele>259.69</ele>
        <time>2017-01-17T15:26:07Z</time>
      </trkpt>
      <trkpt lat="44.89642" lon="1.40619">
        <ele>257.29</ele>
        <time>2017-01-17T15:26:27Z</time>
      </trkpt>
      <trkpt lat="44.89632" lon="1.40596">
        <ele>254.89</ele>
        <time>2017-01-17T15:26:46Z</time>
      </trkpt>
      <trkpt lat="44.89623" lon="1.40577">
        <ele>252.48</ele>
        <time>2017-01-17T15:27:03Z</time>
      </trkpt>
      <trkpt lat="44.89617" lon="1.40549">
        <ele>249.6</ele>
        <time>2017-01-17T15:27:22Z</time>
      </trkpt>
      <trkpt lat="44.8961" lon="1.40526">
        <ele>247.68</ele>
        <time>2017-01-17T15:27:39Z</time>
      </trkpt>
      <trkpt lat="44.89601" lon="1.40506">
        <ele>245.27</ele>
        <time>2017-01-17T15:27:54Z</time>
      </trkpt>
      <trkpt lat="44.89595" lon="1.4049">
        <ele>241.91</ele>
        <time>2017-01-17T15:28:08Z</time>
      </trkpt>
      <trkpt lat="44.89581" lon="1.40478">
        <ele>238.54</ele>
        <time>2017-01-17T15:28:23Z</time>
      </trkpt>
      <trkpt lat="44.89567" lon="1.40472">
        <ele>236.14</ele>
        <time>2017-01-17T15:28:42Z</time>
      </trkpt>
      <trkpt lat="44.89574" lon="1.40461">
        <ele>232.78</ele>
        <time>2017-01-17T15:28:56Z</time>
      </trkpt>
      <trkpt lat="44.89585" lon="1.40442">
        <ele>230.37</ele>
        <time>2017-01-17T15:29:11Z</time>
      </trkpt>
      <trkpt lat="44.89587" lon="1.40438">
        <ele>229.89</ele>
        <time>2017-01-17T15:29:14Z</time>
      </trkpt>
      <trkpt lat="44.89595" lon="1.40421">
        <ele>226.53</ele>
        <time>2017-01-17T15:29:29Z</time>
      </trkpt>
      <trkpt lat="44.89603" lon="1.4041">
        <ele>224.61</ele>
        <time>2017-01-17T15:29:42Z</time>
      </trkpt>
      <trkpt lat="44.89611" lon="1.40399">
        <ele>221.72</ele>
        <time>2017-01-17T15:29:55Z</time>
      </trkpt>
      <trkpt lat="44.89622" lon="1.40385">
        <ele>217.88</ele>
        <time>2017-01-17T15:30:10Z</time>
      </trkpt>
      <trkpt lat="44.8963" lon="1.40366">
        <ele>215.95</ele>
        <time>2017-01-17T15:30:24Z</time>
      </trkpt>
      <trkpt lat="44.89627" lon="1.40342">
        <ele>212.59</ele>
        <time>2017-01-17T15:30:39Z</time>
      </trkpt>
      <trkpt lat="44.89619" lon="1.40333">
        <ele>210.67</ele>
        <time>2017-01-17T15:30:52Z</time>
      </trkpt>
      <trkpt lat="44.8961" lon="1.40332">
        <ele>207.78</ele>
        <time>2017-01-17T15:31:07Z</time>
      </trkpt>
      <trkpt lat="44.89601" lon="1.40339">
        <ele>205.86</ele>
        <time>2017-01-17T15:31:20Z</time>
      </trkpt>
      <trkpt lat="44.8959" lon="1.40352">
        <ele>201.53</ele>
        <time>2017-01-17T15:31:36Z</time>
      </trkpt>
      <trkpt lat="44.89576" lon="1.40356">
        <ele>201.05</ele>
        <time>2017-01-17T15:31:50Z</time>
      </trkpt>
      <trkpt lat="44.89558" lon="1.40354">
        <ele>198.17</ele>
        <time>2017-01-17T15:32:06Z</time>
      </trkpt>
      <trkpt lat="44.89551" lon="1.40347">
        <ele>196.25</ele>
        <time>2017-01-17T15:32:18Z</time>
      </trkpt>
      <trkpt lat="44.89541" lon="1.40336">
        <ele>194.32</ele>
        <time>2017-01-17T15:32:32Z</time>
      </trkpt>
      <trkpt lat="44.89524" lon="1.40319">
        <ele>192.4</ele>
        <time>2017-01-17T15:32:50Z</time>
      </trkpt>
      <trkpt lat="44.89523" lon="1.40318">
        <ele>191.92</ele>
        <time>2017-01-17T15:32:51Z</time>
      </trkpt>
      <trkpt lat="44.8951" lon="1.40306">
        <ele>189.52</ele>
        <time>2017-01-17T15:33:06Z</time>
      </trkpt>
      <trkpt lat="44.89494" lon="1.40298">
        <ele>186.15</ele>
        <time>2017-01-17T15:33:23Z</time>
      </trkpt>
      <trkpt lat="44.8949" lon="1.40296">
        <ele>185.19</ele>
        <time>2017-01-17T15:33:28Z</time>
      </trkpt>
      <trkpt lat="44.89478" lon="1.4029">
        <ele>182.31</ele>
        <time>2017-01-17T15:33:41Z</time>
      </trkpt>
      <trkpt lat="44.89474" lon="1.40289">
        <ele>181.35</ele>
        <time>2017-01-17T15:33:45Z</time>
      </trkpt>
      <trkpt lat="44.89459" lon="1.40285">
        <ele>177.98</ele>
        <time>2017-01-17T15:34:00Z</time>
      </trkpt>
      <trkpt lat="44.89445" lon="1.40284">
        <ele>175.58</ele>
        <time>2017-01-17T15:34:15Z</time>
      </trkpt>
      <trkpt lat="44.8943" lon="1.40282">
        <ele>172.21</ele>
        <time>2017-01-17T15:34:31Z</time>
      </trkpt>
      <trkpt lat="44.89418" lon="1.40277">
        <ele>169.33</ele>
        <time>2017-01-17T15:34:46Z</time>
      </trkpt>
      <trkpt lat="44.89404" lon="1.40274">
        <ele>166.45</ele>
        <time>2017-01-17T15:35:01Z</time>
      </trkpt>
      <trkpt lat="44.8939" lon="1.40265">
        <ele>164.04</ele>
        <time>2017-01-17T15:35:15Z</time>
      </trkpt>
      <trkpt lat="44.89389" lon="1.40264">
        <ele>163.56</ele>
        <time>2017-01-17T15:35:17Z</time>
      </trkpt>
      <trkpt lat="44.89374" lon="1.40252">
        <ele>161.16</ele>
        <time>2017-01-17T15:35:34Z</time>
      </trkpt>
      <trkpt lat="44.89361" lon="1.40237">
        <ele>158.27</ele>
        <time>2017-01-17T15:35:52Z</time>
      </trkpt>
      <trkpt lat="44.89348" lon="1.40225">
        <ele>155.87</ele>
        <time>2017-01-17T15:36:07Z</time>
      </trkpt>
      <trkpt lat="44.89334" lon="1.40214">
        <ele>152.99</ele>
        <time>2017-01-17T15:36:23Z</time>
      </trkpt>
      <trkpt lat="44.8932" lon="1.40205">
        <ele>150.58</ele>
        <time>2017-01-17T15:36:40Z</time>
      </trkpt>
      <trkpt lat="44.89306" lon="1.40192">
        <ele>148.18</ele>
        <time>2017-01-17T15:36:56Z</time>
      </trkpt>
      <trkpt lat="44.89294" lon="1.40175">
        <ele>145.3</ele>
        <time>2017-01-17T15:37:11Z</time>
      </trkpt>
      <trkpt lat="44.89278" lon="1.4016">
        <ele>143.37</ele>
        <time>2017-01-17T15:37:30Z</time>
      </trkpt>
      <trkpt lat="44.89265" lon="1.40147">
        <ele>140.97</ele>
        <time>2017-01-17T15:37:46Z</time>
      </trkpt>
      <trkpt lat="44.8926" lon="1.40142">
        <ele>139.53</ele>
        <time>2017-01-17T15:37:54Z</time>
      </trkpt>
      <trkpt lat="44.89249" lon="1.40132">
        <ele>137.61</ele>
        <time>2017-01-17T15:38:07Z</time>
      </trkpt>
      <trkpt lat="44.89239" lon="1.40118">
        <ele>135.68</ele>
        <time>2017-01-17T15:38:22Z</time>
      </trkpt>
      <trkpt lat="44.89229" lon="1.40108">
        <ele>132.32</ele>
        <time>2017-01-17T15:38:34Z</time>
      </trkpt>
      <trkpt lat="44.89217" lon="1.4009">
        <ele>129.43</ele>
        <time>2017-01-17T15:38:51Z</time>
      </trkpt>
      <trkpt lat="44.89208" lon="1.4007">
        <ele>126.07</ele>
        <time>2017-01-17T15:39:08Z</time>
      </trkpt>
      <trkpt lat="44.89198" lon="1.40049">
        <ele>123.67</ele>
        <time>2017-01-17T15:39:25Z</time>
      </trkpt>
      <trkpt lat="44.89185" lon="1.40031">
        <ele>120.78</ele>
        <time>2017-01-17T15:39:43Z</time>
      </trkpt>
      <trkpt lat="44.89171" lon="1.40012">
        <ele>117.9</ele>
        <time>2017-01-17T15:40:00Z</time>
      </trkpt>
      <trkpt lat="44.89161" lon="1.39994">
        <ele>115.01</ele>
        <time>2017-01-17T15:40:15Z</time>
      </trkpt>
      <trkpt lat="44.89153" lon="1.39982">
        <ele>112.61</ele>
        <time>2017-01-17T15:40:32Z</time>
      </trkpt>
      <trkpt lat="44.89142" lon="1.39965">
        <ele>109.25</ele>
        <time>2017-01-17T15:40:49Z</time>
      </trkpt>
      <trkpt lat="44.8913" lon="1.39952">
        <ele>107.32</ele>
        <time>2017-01-17T15:41:04Z</time>
      </trkpt>
      <trkpt lat="44.89116" lon="1.39941">
        <ele>103.96</ele>
        <time>2017-01-17T15:41:22Z</time>
      </trkpt>
      <trkpt lat="44.891" lon="1.39931">
        <ele>101.56</ele>
        <time>2017-01-17T15:41:40Z</time>
      </trkpt>
      <trkpt lat="44.89085" lon="1.39931">
        <ele>98.19</ele>
        <time>2017-01-17T15:41:56Z</time>
      </trkpt>
      <trkpt lat="44.8907" lon="1.39937">
        <ele>94.83</ele>
        <time>2017-01-17T15:42:12Z</time>
      </trkpt>
      <trkpt lat="44.89056" lon="1.3994">
        <ele>92.42</ele>
        <time>2017-01-17T15:42:28Z</time>
      </trkpt>
      <trkpt lat="44.89055" lon="1.3994">
        <ele>92.42</ele>
        <time>2017-01-17T15:42:29Z</time>
      </trkpt>
      <trkpt lat="44.89034" lon="1.39945">
        <ele>89.54</ele>
        <time>2017-01-17T15:42:49Z</time>
      </trkpt>
      <trkpt lat="44.89013" lon="1.39948">
        <ele>87.62</ele>
        <time>2017-01-17T15:43:08Z</time>
      </trkpt>
      <trkpt lat="44.89002" lon="1.39945">
        <ele>86.18</ele>
        <time>2017-01-17T15:43:23Z</time>
      </trkpt>
      <trkpt lat="44.88998" lon="1.39943">
        <ele>86.18</ele>
        <time>2017-01-17T15:43:39Z</time>
      </trkpt>
      <trkpt lat="44.88998" lon="1.39942">
        <ele>86.18</ele>
        <time>2017-01-17T15:43:55Z</time>
      </trkpt>
      <trkpt lat="44.88999" lon="1.3994">
        <ele>86.18</ele>
        <time>2017-01-17T15:44:14Z</time>
      </trkpt>
      <trkpt lat="44.88998" lon="1.39941">
        <ele>86.18</ele>
        <time>2017-01-17T15:44:39Z</time>
      </trkpt>
      <trkpt lat="44.88993" lon="1.39941">
        <ele>85.21</ele>
        <time>2017-01-17T15:45:00Z</time>
      </trkpt>
      <trkpt lat="44.88975" lon="1.39938">
        <ele>83.29</ele>
        <time>2017-01-17T15:45:19Z</time>
      </trkpt>
      <trkpt lat="44.88966" lon="1.39933">
        <ele>82.33</ele>
        <time>2017-01-17T15:45:26Z</time>
      </trkpt>
      <trkpt lat="44.88964" lon="1.39931">
        <ele>82.33</ele>
        <time>2017-01-17T15:45:28Z</time>
      </trkpt>
      <trkpt lat="44.8896" lon="1.39924">
        <ele>82.33</ele>
        <time>2017-01-17T15:45:34Z</time>
      </trkpt>
      <trkpt lat="44.88951" lon="1.39913">
        <ele>80.89</ele>
        <time>2017-01-17T15:45:43Z</time>
      </trkpt>
      <trkpt lat="44.88939" lon="1.39896">
        <ele>79.45</ele>
        <time>2017-01-17T15:45:56Z</time>
      </trkpt>
      <trkpt lat="44.88921" lon="1.39882">
        <ele>77.04</ele>
        <time>2017-01-17T15:46:14Z</time>
      </trkpt>
      <trkpt lat="44.88919" lon="1.39876">
        <ele>76.56</ele>
        <time>2017-01-17T15:46:18Z</time>
      </trkpt>
      <trkpt lat="44.88915" lon="1.39863">
        <ele>74.64</ele>
        <time>2017-01-17T15:46:31Z</time>
      </trkpt>
      <trkpt lat="44.88916" lon="1.39866">
        <ele>76.08</ele>
        <time>2017-01-17T15:46:33Z</time>
      </trkpt>
      <trkpt lat="44.88919" lon="1.39872">
        <ele>76.08</ele>
        <time>2017-01-17T15:46:38Z</time>
      </trkpt>
      <trkpt lat="44.88919" lon="1.39894">
        <ele>75.12</ele>
        <time>2017-01-17T15:46:54Z</time>
      </trkpt>
      <trkpt lat="44.88923" lon="1.3992">
        <ele>74.16</ele>
        <time>2017-01-17T15:47:11Z</time>
      </trkpt>
      <trkpt lat="44.88926" lon="1.39953">
        <ele>74.16</ele>
        <time>2017-01-17T15:47:31Z</time>
      </trkpt>
      <trkpt lat="44.88928" lon="1.39984">
        <ele>74.64</ele>
        <time>2017-01-17T15:47:50Z</time>
      </trkpt>
      <trkpt lat="44.88928" lon="1.4001">
        <ele>74.16</ele>
        <time>2017-01-17T15:48:07Z</time>
      </trkpt>
      <trkpt lat="44.88928" lon="1.4004">
        <ele>74.16</ele>
        <time>2017-01-17T15:48:25Z</time>
      </trkpt>
      <trkpt lat="44.88926" lon="1.40072">
        <ele>74.64</ele>
        <time>2017-01-17T15:48:46Z</time>
      </trkpt>
      <trkpt lat="44.88924" lon="1.40103">
        <ele>74.64</ele>
        <time>2017-01-17T15:49:04Z</time>
      </trkpt>
      <trkpt lat="44.8892" lon="1.40138">
        <ele>74.64</ele>
        <time>2017-01-17T15:49:24Z</time>
      </trkpt>
      <trkpt lat="44.88916" lon="1.40175">
        <ele>74.64</ele>
        <time>2017-01-17T15:49:46Z</time>
      </trkpt>
      <trkpt lat="44.88911" lon="1.40205">
        <ele>74.64</ele>
        <time>2017-01-17T15:50:05Z</time>
      </trkpt>
      <trkpt lat="44.88908" lon="1.40225">
        <ele>75.12</ele>
        <time>2017-01-17T15:50:18Z</time>
      </trkpt>
      <trkpt lat="44.88902" lon="1.40257">
        <ele>75.12</ele>
        <time>2017-01-17T15:50:39Z</time>
      </trkpt>
      <trkpt lat="44.88892" lon="1.40301">
        <ele>75.12</ele>
        <time>2017-01-17T15:51:05Z</time>
      </trkpt>
      <trkpt lat="44.88883" lon="1.4033">
        <ele>75.12</ele>
        <time>2017-01-17T15:51:24Z</time>
      </trkpt>
      <trkpt lat="44.88878" lon="1.40348">
        <ele>76.56</ele>
        <time>2017-01-17T15:51:33Z</time>
      </trkpt>
      <trkpt lat="44.8887" lon="1.40375">
        <ele>77.04</ele>
        <time>2017-01-17T15:51:50Z</time>
      </trkpt>
      <trkpt lat="44.88863" lon="1.40392">
        <ele>77.52</ele>
        <time>2017-01-17T15:52:06Z</time>
      </trkpt>
      <trkpt lat="44.88862" lon="1.40405">
        <ele>78</ele>
        <time>2017-01-17T15:52:21Z</time>
      </trkpt>
      <trkpt lat="44.88861" lon="1.40402">
        <ele>78</ele>
        <time>2017-01-17T15:52:44Z</time>
      </trkpt>
      <trkpt lat="44.88861" lon="1.40403">
        <ele>78</ele>
        <time>2017-01-17T15:53:00Z</time>
      </trkpt>
      <trkpt lat="44.88863" lon="1.40407">
        <ele>78</ele>
        <time>2017-01-17T15:53:16Z</time>
      </trkpt>
      <trkpt lat="44.88872" lon="1.40408">
        <ele>78</ele>
        <time>2017-01-17T15:53:25Z</time>
      </trkpt>
      <trkpt lat="44.8888" lon="1.40418">
        <ele>78.97</ele>
        <time>2017-01-17T15:53:38Z</time>
      </trkpt>
      <trkpt lat="44.88877" lon="1.40421">
        <ele>79.45</ele>
        <time>2017-01-17T15:53:41Z</time>
      </trkpt>
      <trkpt lat="44.88862" lon="1.40423">
        <ele>82.33</ele>
        <time>2017-01-17T15:53:57Z</time>
      </trkpt>
      <trkpt lat="44.88855" lon="1.40442">
        <ele>83.77</ele>
        <time>2017-01-17T15:54:14Z</time>
      </trkpt>
      <trkpt lat="44.88856" lon="1.40472">
        <ele>86.66</ele>
        <time>2017-01-17T15:54:33Z</time>
      </trkpt>
      <trkpt lat="44.88846" lon="1.40498">
        <ele>87.14</ele>
        <time>2017-01-17T15:54:51Z</time>
      </trkpt>
      <trkpt lat="44.88833" lon="1.40524">
        <ele>84.73</ele>
        <time>2017-01-17T15:55:10Z</time>
      </trkpt>
      <trkpt lat="44.88823" lon="1.40551">
        <ele>84.25</ele>
        <time>2017-01-17T15:55:29Z</time>
      </trkpt>
      <trkpt lat="44.8881" lon="1.40575">
        <ele>84.25</ele>
        <time>2017-01-17T15:55:47Z</time>
      </trkpt>
      <trkpt lat="44.88796" lon="1.40588">
        <ele>83.29</ele>
        <time>2017-01-17T15:56:03Z</time>
      </trkpt>
      <trkpt lat="44.88785" lon="1.40599">
        <ele>83.29</ele>
        <time>2017-01-17T15:56:14Z</time>
      </trkpt>
      <trkpt lat="44.88766" lon="1.40614">
        <ele>82.33</ele>
        <time>2017-01-17T15:56:33Z</time>
      </trkpt>
      <trkpt lat="44.88751" lon="1.40631">
        <ele>80.89</ele>
        <time>2017-01-17T15:56:50Z</time>
      </trkpt>
      <trkpt lat="44.88733" lon="1.4065">
        <ele>79.45</ele>
        <time>2017-01-17T15:57:09Z</time>
      </trkpt>
      <trkpt lat="44.88715" lon="1.40676">
        <ele>79.45</ele>
        <time>2017-01-17T15:57:30Z</time>
      </trkpt>
      <trkpt lat="44.887" lon="1.40695">
        <ele>79.45</ele>
        <time>2017-01-17T15:57:47Z</time>
      </trkpt>
      <trkpt lat="44.88685" lon="1.40711">
        <ele>79.45</ele>
        <time>2017-01-17T15:58:03Z</time>
      </trkpt>
      <trkpt lat="44.88672" lon="1.40724">
        <ele>80.89</ele>
        <time>2017-01-17T15:58:18Z</time>
      </trkpt>
      <trkpt lat="44.88661" lon="1.40732">
        <ele>81.37</ele>
        <time>2017-01-17T15:58:36Z</time>
      </trkpt>
      <trkpt lat="44.88664" lon="1.40728">
        <ele>81.37</ele>
        <time>2017-01-17T15:59:00Z</time>
      </trkpt>
      <trkpt lat="44.88672" lon="1.40728">
        <ele>82.33</ele>
        <time>2017-01-17T15:59:20Z</time>
      </trkpt>
      <trkpt lat="44.88671" lon="1.40725">
        <ele>82.81</ele>
        <time>2017-01-17T15:59:37Z</time>
      </trkpt>
      <trkpt lat="44.88669" lon="1.40726">
        <ele>82.81</ele>
        <time>2017-01-17T15:59:53Z</time>
      </trkpt>
      <trkpt lat="44.88666" lon="1.40728">
        <ele>82.81</ele>
        <time>2017-01-17T15:59:57Z</time>
      </trkpt>
      <trkpt lat="44.88663" lon="1.40731">
        <ele>81.37</ele>
        <time>2017-01-17T16:00:00Z</time>
      </trkpt>
      <trkpt lat="44.88656" lon="1.40737">
        <ele>81.37</ele>
        <time>2017-01-17T16:00:07Z</time>
      </trkpt>
      <trkpt lat="44.88653" lon="1.40741">
        <ele>80.89</ele>
        <time>2017-01-17T16:00:11Z</time>
      </trkpt>
      <trkpt lat="44.88647" lon="1.40748">
        <ele>80.89</ele>
        <time>2017-01-17T16:00:17Z</time>
      </trkpt>
      <trkpt lat="44.88644" lon="1.40753">
        <ele>80.89</ele>
        <time>2017-01-17T16:00:21Z</time>
      </trkpt>
      <trkpt lat="44.88638" lon="1.40762">
        <ele>80.89</ele>
        <time>2017-01-17T16:00:31Z</time>
      </trkpt>
      <trkpt lat="44.88646" lon="1.40785">
        <ele>82.81</ele>
        <time>2017-01-17T16:00:49Z</time>
      </trkpt>
      <trkpt lat="44.8865" lon="1.40791">
        <ele>83.77</ele>
        <time>2017-01-17T16:00:54Z</time>
      </trkpt>
      <trkpt lat="44.8866" lon="1.40801">
        <ele>84.73</ele>
        <time>2017-01-17T16:01:04Z</time>
      </trkpt>
      <trkpt lat="44.88679" lon="1.40804">
        <ele>86.18</ele>
        <time>2017-01-17T16:01:22Z</time>
      </trkpt>
      <trkpt lat="44.88699" lon="1.40806">
        <ele>86.66</ele>
        <time>2017-01-17T16:01:39Z</time>
      </trkpt>
      <trkpt lat="44.88712" lon="1.40816">
        <ele>88.1</ele>
        <time>2017-01-17T16:01:57Z</time>
      </trkpt>
      <trkpt lat="44.88711" lon="1.40812">
        <ele>89.54</ele>
        <time>2017-01-17T16:02:23Z</time>
      </trkpt>
      <trkpt lat="44.88713" lon="1.40812">
        <ele>88.1</ele>
        <time>2017-01-17T16:02:29Z</time>
      </trkpt>
      <trkpt lat="44.88717" lon="1.40803">
        <ele>88.1</ele>
        <time>2017-01-17T16:02:47Z</time>
      </trkpt>
      <trkpt lat="44.88721" lon="1.40808">
        <ele>89.54</ele>
        <time>2017-01-17T16:03:01Z</time>
      </trkpt>
      <trkpt lat="44.88708" lon="1.4081">
        <ele>88.1</ele>
        <time>2017-01-17T16:03:12Z</time>
      </trkpt>
      <trkpt lat="44.88707" lon="1.40821">
        <ele>88.1</ele>
        <time>2017-01-17T16:03:25Z</time>
      </trkpt>
      <trkpt lat="44.88706" lon="1.40828">
        <ele>88.1</ele>
        <time>2017-01-17T16:03:30Z</time>
      </trkpt>
      <trkpt lat="44.88702" lon="1.40855">
        <ele>90.02</ele>
        <time>2017-01-17T16:03:47Z</time>
      </trkpt>
      <trkpt lat="44.88702" lon="1.40858">
        <ele>90.02</ele>
        <time>2017-01-17T16:03:49Z</time>
      </trkpt>
      <trkpt lat="44.88705" lon="1.40869">
        <ele>90.02</ele>
        <time>2017-01-17T16:03:58Z</time>
      </trkpt>
      <trkpt lat="44.88698" lon="1.40891">
        <ele>90.02</ele>
        <time>2017-01-17T16:04:15Z</time>
      </trkpt>
      <trkpt lat="44.88689" lon="1.40898">
        <ele>90.02</ele>
        <time>2017-01-17T16:04:29Z</time>
      </trkpt>
      <trkpt lat="44.88682" lon="1.40908">
        <ele>89.06</ele>
        <time>2017-01-17T16:04:38Z</time>
      </trkpt>
      <trkpt lat="44.88668" lon="1.40932">
        <ele>89.06</ele>
        <time>2017-01-17T16:04:57Z</time>
      </trkpt>
      <trkpt lat="44.88651" lon="1.4096">
        <ele>88.58</ele>
        <time>2017-01-17T16:05:19Z</time>
      </trkpt>
      <trkpt lat="44.88638" lon="1.40984">
        <ele>88.1</ele>
        <time>2017-01-17T16:05:37Z</time>
      </trkpt>
      <trkpt lat="44.88636" lon="1.4099">
        <ele>88.1</ele>
        <time>2017-01-17T16:05:41Z</time>
      </trkpt>
      <trkpt lat="44.88624" lon="1.4101">
        <ele>87.14</ele>
        <time>2017-01-17T16:05:58Z</time>
      </trkpt>
      <trkpt lat="44.88614" lon="1.41029">
        <ele>87.14</ele>
        <time>2017-01-17T16:06:16Z</time>
      </trkpt>
      <trkpt lat="44.88601" lon="1.41054">
        <ele>87.14</ele>
        <time>2017-01-17T16:06:32Z</time>
      </trkpt>
      <trkpt lat="44.88597" lon="1.41064">
        <ele>86.18</ele>
        <time>2017-01-17T16:06:47Z</time>
      </trkpt>
      <trkpt lat="44.88597" lon="1.41066">
        <ele>86.18</ele>
        <time>2017-01-17T16:07:03Z</time>
      </trkpt>
      <trkpt lat="44.88591" lon="1.41066">
        <ele>87.62</ele>
        <time>2017-01-17T16:07:12Z</time>
      </trkpt>
      <trkpt lat="44.88579" lon="1.41094">
        <ele>85.69</ele>
        <time>2017-01-17T16:07:32Z</time>
      </trkpt>
      <trkpt lat="44.88569" lon="1.41093">
        <ele>84.25</ele>
        <time>2017-01-17T16:07:44Z</time>
      </trkpt>
      <trkpt lat="44.88573" lon="1.41056">
        <ele>83.29</ele>
        <time>2017-01-17T16:08:07Z</time>
      </trkpt>
      <trkpt lat="44.88574" lon="1.41037">
        <ele>82.81</ele>
        <time>2017-01-17T16:08:21Z</time>
      </trkpt>
      <trkpt lat="44.88575" lon="1.41012">
        <ele>81.85</ele>
        <time>2017-01-17T16:08:37Z</time>
      </trkpt>
      <trkpt lat="44.88576" lon="1.4101">
        <ele>81.85</ele>
        <time>2017-01-17T16:08:38Z</time>
      </trkpt>
      <trkpt lat="44.88578" lon="1.4098">
        <ele>80.89</ele>
        <time>2017-01-17T16:08:57Z</time>
      </trkpt>
      <trkpt lat="44.8858" lon="1.40962">
        <ele>81.37</ele>
        <time>2017-01-17T16:09:07Z</time>
      </trkpt>
      <trkpt lat="44.88581" lon="1.40946">
        <ele>80.89</ele>
        <time>2017-01-17T16:09:16Z</time>
      </trkpt>
      <trkpt lat="44.88576" lon="1.40928">
        <ele>80.41</ele>
        <time>2017-01-17T16:09:33Z</time>
      </trkpt>
      <trkpt lat="44.88575" lon="1.40925">
        <ele>80.41</ele>
        <time>2017-01-17T16:09:51Z</time>
      </trkpt>
      <trkpt lat="44.88576" lon="1.40925">
        <ele>82.33</ele>
        <time>2017-01-17T16:10:07Z</time>
      </trkpt>
      <trkpt lat="44.88573" lon="1.40923">
        <ele>82.33</ele>
        <time>2017-01-17T16:10:19Z</time>
      </trkpt>
      <trkpt lat="44.88573" lon="1.40919">
        <ele>81.37</ele>
        <time>2017-01-17T16:10:41Z</time>
      </trkpt>
      <trkpt lat="44.88573" lon="1.40917">
        <ele>81.37</ele>
        <time>2017-01-17T16:10:58Z</time>
      </trkpt>
      <trkpt lat="44.88573" lon="1.40915">
        <ele>81.37</ele>
        <time>2017-01-17T16:11:00Z</time>
      </trkpt>
      <trkpt lat="44.88575" lon="1.40904">
        <ele>81.85</ele>
        <time>2017-01-17T16:11:08Z</time>
      </trkpt>
      <trkpt lat="44.88574" lon="1.40899">
        <ele>81.85</ele>
        <time>2017-01-17T16:11:21Z</time>
      </trkpt>
      <trkpt lat="44.88573" lon="1.40899">
        <ele>81.85</ele>
        <time>2017-01-17T16:11:35Z</time>
      </trkpt>
      <trkpt lat="44.88572" lon="1.40898">
        <ele>81.85</ele>
        <time>2017-01-17T16:12:00Z</time>
      </trkpt>
      <trkpt lat="44.8857" lon="1.40897">
        <ele>81.37</ele>
        <time>2017-01-17T16:12:17Z</time>
      </trkpt>
      <trkpt lat="44.8857" lon="1.40898">
        <ele>80.89</ele>
        <time>2017-01-17T16:12:40Z</time>
      </trkpt>
      <trkpt lat="44.88575" lon="1.40899">
        <ele>80.41</ele>
        <time>2017-01-17T16:13:05Z</time>
      </trkpt>
      <trkpt lat="44.88576" lon="1.40902">
        <ele>80.41</ele>
        <time>2017-01-17T16:13:25Z</time>
      </trkpt>
      <trkpt lat="44.88565" lon="1.4088">
        <ele>81.85</ele>
        <time>2017-01-17T16:13:38Z</time>
      </trkpt>
      <trkpt lat="44.88562" lon="1.40875">
        <ele>82.81</ele>
        <time>2017-01-17T16:13:44Z</time>
      </trkpt>
      <trkpt lat="44.88563" lon="1.40871">
        <ele>83.29</ele>
        <time>2017-01-17T16:13:45Z</time>
      </trkpt>
      <trkpt lat="44.88563" lon="1.40867">
        <ele>83.29</ele>
        <time>2017-01-17T16:13:46Z</time>
      </trkpt>
      <trkpt lat="44.88565" lon="1.40862">
        <ele>83.29</ele>
        <time>2017-01-17T16:13:47Z</time>
      </trkpt>
      <trkpt lat="44.88569" lon="1.40854">
        <ele>83.29</ele>
        <time>2017-01-17T16:13:48Z</time>
      </trkpt>
      <trkpt lat="44.88571" lon="1.4085">
        <ele>83.29</ele>
        <time>2017-01-17T16:13:49Z</time>
      </trkpt>
      <trkpt lat="44.88625" lon="1.40741">
        <ele>84.25</ele>
        <time>2017-01-17T16:14:02Z</time>
      </trkpt>
      <trkpt lat="44.88715" lon="1.40592">
        <ele>84.25</ele>
        <time>2017-01-17T16:14:16Z</time>
      </trkpt>
      <trkpt lat="44.88737" lon="1.4056">
        <ele>82.81</ele>
        <time>2017-01-17T16:14:19Z</time>
      </trkpt>
      <trkpt lat="44.8884" lon="1.40398">
        <ele>84.25</ele>
        <time>2017-01-17T16:14:31Z</time>
      </trkpt>
      <trkpt lat="44.88885" lon="1.40238">
        <ele>84.25</ele>
        <time>2017-01-17T16:14:39Z</time>
      </trkpt>
      <trkpt lat="44.88885" lon="1.40047">
        <ele>86.18</ele>
        <time>2017-01-17T16:14:47Z</time>
      </trkpt>
    </trkseg>
  </trk>
</gpx>